M I D A S
Marine Information and Data Acquisition System
Tripno 444 of the Zeeleeuw from 2003-03-11 07:39:54 to 2003-03-11 13:04:54
Back to CruiseResearch ActivitiesStationsMapUnderway DataData graphs

EquipmentUnitsComment
TimeDGPSUTC
LatitudeDGPSDM.mWGS84
LongitudeDGPSDM.mWGS84
TemperatureSBE03/SBE38deg celciusITS90
ConductivitySBE21S/mITS90
SalinitySBE21 Practical Salinity Units
ChlorophylAChelsea fluorimeterg/lCalibrated in Aceton
Missing or incorrect values are displayed as -999
Sea surface data collected by the RV Zeeleeuw from 2003-03-11 07:39:54 to 2003-03-11 13:04:54
                                                                                    Next 1000 lines
Time Latitude Longitude Temperature Conductivity Salinity ChlorophylA
2003-03-11 07:40:04 51°13.592 2°56.102 8.906931 2.735483 24.53688 1.949212
2003-03-11 07:40:08 51°13.592 2°56.101 8.861793 2.735378 24.586244 1.982922
2003-03-11 07:40:14 51°13.592 2°56.1 8.728486 2.72812 24.555961 2.016631
2003-03-11 07:40:19 51°13.592 2°56.099 8.527864 2.732539 24.647074 2.218888
2003-03-11 07:40:24 51°13.592 2°56.097 8.481452 2.729489 24.642786 2.421144
2003-03-11 07:40:28 51°13.593 2°56.094 8.481452 2.729489 24.642786 2.421144
2003-03-11 07:40:34 51°13.594 2°56.089 8.537315 2.72728 24.634412 2.286306
2003-03-11 07:40:39 51°13.595 2°56.083 8.431403 2.723914 24.611701 2.252597
2003-03-11 07:40:44 51°13.596 2°56.077 8.299129 2.728017 24.678566 2.690819
2003-03-11 07:40:50 51°13.599 2°56.068 8.1328 2.738327 24.846355 3.432426
2003-03-11 07:40:54 51°13.601 2°56.062 8.003199 2.741694 24.954241 3.634683
2003-03-11 07:41:00 51°13.603 2°56.052 8.003199 2.741694 24.954241 3.634683
2003-03-11 07:41:04 51°13.605 2°56.045 7.906578 2.755266 25.135006 4.34258
2003-03-11 07:41:10 51°13.607 2°56.034 7.839982 2.772099 25.332279 5.421281
2003-03-11 07:41:14 51°13.609 2°56.026 7.799671 2.788828 25.546903 12.567674
2003-03-11 07:41:20 51°13.612 2°56.015 7.726016 2.828179 26.041758 19.950033
2003-03-11 07:41:24 51°13.614 2°56.007 7.715425 2.885739 26.704423 22.680494
2003-03-11 07:41:30 51°13.618 2°55.994 7.715425 2.885739 26.704423 22.680494
2003-03-11 07:41:34 51°13.62 2°55.986 7.672653 2.919416 27.14501 23.52323
2003-03-11 07:41:40 51°13.624 2°55.973 7.660351 2.954041 27.569831 23.894033
2003-03-11 07:41:44 51°13.627 2°55.965 7.621678 2.983091 27.93911 23.422101
2003-03-11 07:41:50 51°13.631 2°55.952 7.607176 2.994144 28.110647 23.186136
2003-03-11 07:41:54 51°13.633 2°55.944 7.60226 3.029195 28.520264 22.410819
2003-03-11 07:42:00 51°13.637 2°55.932 7.60226 3.029195 28.520264 22.410819
2003-03-11 07:42:04 51°13.64 2°55.924 7.588387 3.05267 28.807652 22.242272
2003-03-11 07:42:10 51°13.644 2°55.912 7.541876 3.062671 28.952635 21.2647
2003-03-11 07:42:14 51°13.647 2°55.904 7.504058 3.076041 29.120814 20.523093
2003-03-11 07:42:20 51°13.651 2°55.891 7.488115 3.082463 29.211035 19.680358
2003-03-11 07:42:24 51°13.654 2°55.883 7.487579 3.072988 29.127846 19.073589
2003-03-11 07:42:30 51°13.659 2°55.87 7.487579 3.072988 29.127846 19.073589
2003-03-11 07:42:34 51°13.662 2°55.861 7.464266 3.074462 29.154444 18.331982
2003-03-11 07:42:40 51°13.668 2°55.848 7.430112 3.076358 29.20436 17.556665
2003-03-11 07:42:44 51°13.671 2°55.84 7.425963 3.076463 29.232082 17.388118
2003-03-11 07:42:50 51°13.675 2°55.828 7.413076 3.083412 29.328269 17.017315
2003-03-11 07:42:54 51°13.678 2°55.821 7.411807 3.077516 29.271222 16.781349
2003-03-11 07:43:00 51°13.681 2°55.809 7.411807 3.077516 29.271222 16.781349
2003-03-11 07:43:04 51°13.684 2°55.803 7.407657 3.095519 29.494526 16.477965
2003-03-11 07:43:08 51°13.686 2°55.796 7.413662 3.098256 29.538983 16.71393
2003-03-11 07:43:14 51°13.689 2°55.787 7.392032 3.114259 29.725583 16.275708
2003-03-11 07:43:19 51°13.691 2°55.781 7.40175 3.119523 29.79621 16.646512
2003-03-11 07:43:24 51°13.692 2°55.776 7.380995 3.120892 29.820723 16.545383
2003-03-11 07:43:28 51°13.694 2°55.772 7.380995 3.120892 29.820723 16.545383
2003-03-11 07:43:34 51°13.695 2°55.767 7.386172 3.121629 29.834981 16.848768
2003-03-11 07:43:39 51°13.696 2°55.763 7.370786 3.114575 29.7669 16.74764
2003-03-11 07:43:44 51°13.697 2°55.76 7.361211 3.106047 29.683959 17.084734
2003-03-11 07:43:48 51°13.697 2°55.758 7.36424 3.109416 29.720991 17.253281
2003-03-11 07:43:52 51°13.698 2°55.757 7.36424 3.109416 29.720991 17.253281
2003-03-11 07:43:58 51°13.698 2°55.755 7.360722 3.105416 29.684443 17.28699
2003-03-11 07:44:04 51°13.699 2°55.755 7.364093 3.09952 29.629293 17.522956
2003-03-11 07:44:09 51°13.7 2°55.755 7.353784 3.097625 29.616414 17.657794
2003-03-11 07:44:14 51°13.701 2°55.756 7.342788 3.096467 29.61704 17.590375
2003-03-11 07:44:19 51°13.701 2°55.757 7.342446 3.093836 29.593501 17.826341
2003-03-11 07:44:24 51°13.703 2°55.758 7.342788 3.083729 29.490224 17.758922
2003-03-11 07:44:28 51°13.704 2°55.76 7.342788 3.083729 29.490224 17.758922
2003-03-11 07:44:34 51°13.705 2°55.761 7.346747 3.073623 29.387684 17.657794
2003-03-11 07:44:39 51°13.706 2°55.762 7.341176 3.069939 29.353009 17.792631
2003-03-11 07:44:43 51°13.707 2°55.762 7.350607 3.068991 29.34938 17.556665
2003-03-11 07:44:48 51°13.707 2°55.762 7.345965 3.063307 29.294975 17.826341
2003-03-11 07:44:54 51°13.707 2°55.761 7.341958 3.058675 29.250982 17.792631
2003-03-11 07:44:59 51°13.706 2°55.759 7.341958 3.058675 29.250982 17.792631
2003-03-11 07:45:04 51°13.705 2°55.757 7.341713 3.050148 29.16372 17.657794
2003-03-11 07:45:08 51°13.704 2°55.755 7.332916 3.051096 29.171612 17.826341
2003-03-11 07:45:14 51°13.702 2°55.752 7.327392 3.042148 29.079927 17.758922
2003-03-11 07:45:20 51°13.7 2°55.749 7.330325 3.03899 29.047986 17.758922
2003-03-11 07:45:24 51°13.699 2°55.748 7.315219 3.027937 28.929913 17.893759
2003-03-11 07:45:30 51°13.697 2°55.745 7.315219 3.027937 28.929913 17.893759
2003-03-11 07:45:34 51°13.696 2°55.744 7.317859 3.018885 28.839284 18.028597
2003-03-11 07:45:40 51°13.696 2°55.742 7.312578 3.02278 28.881075 17.86005
2003-03-11 07:45:44 51°13.695 2°55.741 7.312578 3.019517 28.845947 17.961178
2003-03-11 07:45:48 51°13.696 2°55.739 7.304119 3.028569 28.950576 18.803913
2003-03-11 07:45:54 51°13.698 2°55.737 7.306613 3.033095 29.00258 19.343264
2003-03-11 07:45:59 51°13.699 2°55.736 7.306613 3.033095 29.00258 19.343264
2003-03-11 07:46:04 51°13.701 2°55.736 7.297957 3.037727 29.054317 19.848905
2003-03-11 07:46:09 51°13.702 2°55.736 7.305831 3.057833 29.269678 20.624221
2003-03-11 07:46:14 51°13.704 2°55.737 7.3005 3.070992 29.413166 20.523093
2003-03-11 07:46:19 51°13.706 2°55.736 7.309351 3.083204 29.546749 20.860187
2003-03-11 07:46:24 51°13.709 2°55.735 7.309351 3.083204 29.546749 20.860187
2003-03-11 07:46:29 51°13.713 2°55.733 7.310085 3.085625 29.575977 21.163571
2003-03-11 07:46:34 51°13.717 2°55.73 7.305195 3.09531 29.680052 21.365828
2003-03-11 07:46:39 51°13.721 2°55.727 7.305439 3.098784 29.720479 21.365828
2003-03-11 07:46:43 51°13.725 2°55.723 7.309791 3.101943 29.75469 21.332118
2003-03-11 07:46:48 51°13.73 2°55.719 7.303092 3.092784 29.659734 21.23099
2003-03-11 07:46:54 51°13.737 2°55.712 7.308031 3.095626 29.686993 21.23099
2003-03-11 07:46:59 51°13.743 2°55.707 7.308031 3.095626 29.686993 21.23099
2003-03-11 07:47:04 51°13.75 2°55.701 7.300207 3.093837 29.669458 21.2647
2003-03-11 07:47:08 51°13.755 2°55.695 7.306075 3.092678 29.656463 20.69164
2003-03-11 07:47:14 51°13.764 2°55.688 7.299865 3.083204 29.557482 20.893896
2003-03-11 07:47:19 51°13.772 2°55.681 7.306466 3.08173 29.540435 21.062443
2003-03-11 07:47:24 51°13.78 2°55.674 7.309987 3.086362 29.590949 22.37711
2003-03-11 07:47:28 51°13.786 2°55.668 7.309987 3.086362 29.590949 22.37711
2003-03-11 07:47:34 51°13.796 2°55.659 7.314974 3.079519 29.519158 22.882751
2003-03-11 07:47:39 51°13.804 2°55.651 7.314339 3.094363 29.677194 23.894033
2003-03-11 07:47:44 51°13.814 2°55.642 7.317272 3.087731 29.609756 23.759195
2003-03-11 07:47:49 51°13.823 2°55.634 7.325485 3.095521 29.692349 23.995161
2003-03-11 07:47:54 51°13.832 2°55.626 7.331742 3.089941 29.631756 23.320973
2003-03-11 07:47:58 51°13.839 2°55.62 7.331742 3.089941 29.631756 23.320973
2003-03-11 07:48:04 51°13.85 2°55.611 8.562015 3.084467 29.573733 23.219845
2003-03-11 07:48:08 51°13.857 2°55.606 7.322015 3.06436 29.360033 22.95017
2003-03-11 07:48:12 51°13.866 2°55.599 7.321526 3.059833 29.311403 22.208563
2003-03-11 07:48:18 51°13.877 2°55.59 7.31957 3.041622 29.11449 21.500665
2003-03-11 07:48:23 51°13.886 2°55.583 7.310916 3.037833 29.071606 21.129862
2003-03-11 07:48:28 51°13.895 2°55.575 7.310916 3.037833 29.071606 21.129862
2003-03-11 07:48:33 51°13.904 2°55.568 7.315708 3.02478 28.930862 20.523093
2003-03-11 07:48:39 51°13.915 2°55.558 7.312334 3.022254 28.899979 19.950033
2003-03-11 07:48:44 51°13.925 2°55.551 7.310427 3.029517 28.980205 19.646648
2003-03-11 07:48:49 51°13.934 2°55.544 7.309449 3.03278 29.018198 19.781486
2003-03-11 07:48:54 51°13.944 2°55.536 7.309449 3.03278 29.018198 19.781486
2003-03-11 07:48:59 51°13.953 2°55.529 7.311063 3.03099 29.002095 20.152289
2003-03-11 07:49:04 51°13.963 2°55.522 7.316588 3.050886 29.216003 19.478101
2003-03-11 07:49:09 51°13.973 2°55.515 7.323041 3.05457 29.254988 19.511811
2003-03-11 07:49:14 51°13.982 2°55.508 7.326512 3.051728 29.225621 19.478101
2003-03-11 07:49:19 51°13.992 2°55.5 7.329543 3.06036 29.321235 19.714067
2003-03-11 07:49:24 51°14.002 2°55.492 7.32881 3.067308 29.394802 19.781486
2003-03-11 07:49:28 51°14.01 2°55.485 7.32881 3.067308 29.394802 19.781486
2003-03-11 07:49:32 51°14.018 2°55.478 7.329836 3.067097 29.393997 19.815195
2003-03-11 07:49:39 51°14.032 2°55.467 7.32265 3.063307 29.349599 19.950033
2003-03-11 07:49:44 51°14.041 2°55.46 7.328125 3.059939 29.311808 19.916324
2003-03-11 07:49:49 51°14.051 2°55.453 7.327441 3.064044 29.352425 19.646648
2003-03-11 07:49:54 51°14.06 2°55.445 7.332525 3.057939 29.287092 19.882614
2003-03-11 07:49:58 51°14.068 2°55.439 7.332525 3.057939 29.287092 19.882614
2003-03-11 07:50:04 51°14.08 2°55.43 7.333453 3.051517 29.218441 19.410683
2003-03-11 07:50:09 51°14.09 2°55.422 7.32661 3.062886 29.340167 19.680358
2003-03-11 07:50:14 51°14.1 2°55.414 7.331938 3.059097 29.298637 19.208426
2003-03-11 07:50:19 51°14.11 2°55.407 7.336093 3.053202 29.237675 19.376973
2003-03-11 07:50:24 51°14.119 2°55.4 7.333307 3.066992 29.382206 18.803913
2003-03-11 07:50:28 51°14.127 2°55.393 7.333307 3.066992 29.382206 18.803913
2003-03-11 07:50:33 51°14.137 2°55.386 7.332525 3.062676 29.337228 18.905042
2003-03-11 07:50:39 51°14.15 2°55.377 7.327734 3.065939 29.370351 18.770204
2003-03-11 07:50:44 51°14.159 2°55.369 7.324557 3.054675 29.252561 18.3994
2003-03-11 07:50:48 51°14.167 2°55.363 7.318739 3.063202 29.340668 18.331982
2003-03-11 07:50:54 51°14.178 2°55.354 7.310818 3.06236 29.330335 17.691503
2003-03-11 07:50:59 51°14.187 2°55.346 7.310818 3.06236 29.330335 17.691503
2003-03-11 07:51:04 51°14.196 2°55.337 7.310818 3.05857 29.289521 17.556665
2003-03-11 07:51:08 51°14.203 2°55.33 7.302603 3.059518 29.301674 17.219571
2003-03-11 07:51:14 51°14.213 2°55.32 7.301332 3.065307 29.365087 16.444255
2003-03-11 07:51:19 51°14.221 2°55.311 7.318788 3.074045 29.459742 16.781349
2003-03-11 07:51:24 51°14.228 2°55.302 7.318788 3.074045 29.459742 16.781349
2003-03-11 07:51:28 51°14.234 2°55.295 7.32441 3.079835 29.524649 16.612802
2003-03-11 07:51:34 51°14.243 2°55.284 7.33751 3.090257 29.637975 16.74764
2003-03-11 07:51:39 51°14.251 2°55.274 7.349679 3.094468 29.689096 16.949896
2003-03-11 07:51:44 51°14.258 2°55.264 7.354614 3.102364 29.778628 17.017315
2003-03-11 07:51:48 51°14.264 2°55.255 7.36082 3.094995 29.698997 16.781349
2003-03-11 07:51:53 51°14.271 2°55.243 7.353295 3.093205 29.677855 16.208289
2003-03-11 07:51:58 51°14.279 2°55.231 7.353295 3.093205 29.677855 16.208289
2003-03-11 07:52:04 51°14.288 2°55.214 7.350803 3.080677 29.540012 16.039742
2003-03-11 07:52:09 51°14.295 2°55.2 7.349337 3.06436 29.359322 15.331845
2003-03-11 07:52:14 51°14.303 2°55.185 7.340394 3.039201 29.086073 15.668939
2003-03-11 07:52:19 51°14.31 2°55.17 7.340834 3.022569 28.904014 15.163298
2003-03-11 07:52:24 51°14.318 2°55.155 7.343717 3.016569 28.836468 15.399264
2003-03-11 07:52:28 51°14.324 2°55.143 7.343717 3.016569 28.836468 15.399264
2003-03-11 07:52:34 51°14.333 2°55.125 7.339123 3.002781 28.690252 15.904905
2003-03-11 07:52:38 51°14.339 2°55.113 7.347382 3.015727 28.829671 16.949896
2003-03-11 07:52:43 51°14.346 2°55.097 7.346796 3.022569 28.900516 17.28699
2003-03-11 07:52:48 51°14.353 2°55.08 7.344401 3.03278 29.011878 17.725212
2003-03-11 07:52:54 51°14.362 2°55.06 7.339612 3.043096 29.121613 17.624084
2003-03-11 07:52:59 51°14.369 2°55.044 7.339612 3.043096 29.121613 17.624084
2003-03-11 07:53:04 51°14.376 2°55.027 7.334968 3.037517 29.06475 17.590375
2003-03-11 07:53:08 51°14.382 2°55.013 7.334186 3.047201 29.167138 17.522956
2003-03-11 07:53:14 51°14.392 2°54.991 7.325632 3.039938 29.089638 17.624084
2003-03-11 07:53:19 51°14.398 2°54.973 7.31957 3.044254 29.135971 18.264563
2003-03-11 07:53:23 51°14.403 2°54.958 7.317859 3.04457 29.140015 18.534238
2003-03-11 07:53:28 51°14.409 2°54.939 7.317859 3.04457 29.140015 18.534238
2003-03-11 07:53:34 51°14.415 2°54.916 7.311601 3.045201 29.148811 18.803913
2003-03-11 07:53:39 51°14.419 2°54.897 7.312676 3.064465 29.354039 19.478101
2003-03-11 07:53:44 51°14.423 2°54.877 7.305439 3.080256 29.525535 19.57923
2003-03-11 07:53:48 51°14.425 2°54.861 7.305928 3.08752 29.608241 19.478101
2003-03-11 07:53:54 51°14.429 2°54.837 7.29693 3.100785 29.751055 19.680358
2003-03-11 07:53:59 51°14.43 2°54.817 7.29693 3.100785 29.751055 19.680358
2003-03-11 07:54:04 51°14.432 2°54.797 7.298544 3.102364 29.772855 19.511811
2003-03-11 07:54:08 51°14.433 2°54.781 7.302848 3.115313 29.913914 19.376973
2003-03-11 07:54:14 51°14.432 2°54.757 7.297762 3.120051 29.967854 19.646648
2003-03-11 07:54:19 51°14.431 2°54.737 7.299816 3.124578 30.017399 20.017452
2003-03-11 07:54:24 51°14.43 2°54.717 7.292528 3.131738 30.097851 20.927606
2003-03-11 07:54:29 51°14.428 2°54.697 7.292528 3.131738 30.097851 20.927606
2003-03-11 07:54:34 51°14.426 2°54.677 7.290768 3.135317 30.138095 20.961315
2003-03-11 07:54:39 51°14.424 2°54.658 7.29649 3.155111 30.347903 21.601794
2003-03-11 07:54:43 51°14.422 2°54.644 7.29918 3.165324 30.457349 21.938888
2003-03-11 07:54:49 51°14.419 2°54.623 7.300207 3.173432 30.545905 23.017589
2003-03-11 07:54:54 51°14.416 2°54.608 7.304804 3.188805 30.712689 23.658067
2003-03-11 07:54:59 51°14.413 2°54.593 7.304804 3.188805 30.712689 23.658067
2003-03-11 07:55:04 51°14.41 2°54.579 7.310476 3.187646 30.698108 24.703059
2003-03-11 07:55:08 51°14.408 2°54.569 7.307053 3.220394 31.050441 24.770477
2003-03-11 07:55:14 51°14.405 2°54.555 7.305488 3.239348 31.252893 24.703059
2003-03-11 07:55:19 51°14.401 2°54.545 7.307591 3.23998 31.258128 25.242409
2003-03-11 07:55:24 51°14.398 2°54.535 7.295072 3.255039 31.416044 25.478375
2003-03-11 07:55:28 51°14.395 2°54.528 7.295072 3.255039 31.416044 25.478375
2003-03-11 07:55:34 51°14.391 2°54.518 7.281718 3.265886 31.530516 25.377247
2003-03-11 07:55:39 51°14.388 2°54.511 7.275114 3.267255 31.544395 25.646922
2003-03-11 07:55:44 51°14.384 2°54.505 -999 -999 -999 -2.871232
2003-03-11 07:55:48 51°14.381 2°54.5 7.268166 3.281893 31.700265 27.029007
2003-03-11 07:55:54 51°14.376 2°54.493 7.257597 3.298322 31.875416 27.838033
2003-03-11 07:55:58 51°14.374 2°54.489 7.257597 3.298322 31.875416 27.838033
2003-03-11 07:56:04 51°14.369 2°54.484 7.25236 3.317701 32.094768 29.321247
2003-03-11 07:56:08 51°14.367 2°54.48 7.248053 3.325284 32.179237 29.422375
2003-03-11 07:56:12 51°14.364 2°54.477 7.248837 3.343505 32.379548 29.995435
2003-03-11 07:56:18 51°14.359 2°54.474 7.243453 3.356881 32.529584 29.725759
2003-03-11 07:56:23 51°14.356 2°54.471 7.239194 3.365202 32.6238 30.029144
2003-03-11 07:56:28 51°14.352 2°54.469 7.239194 3.365202 32.6238 30.029144
2003-03-11 07:56:34 51°14.349 2°54.466 7.235865 3.370679 32.689861 30.635913
2003-03-11 07:56:39 51°14.346 2°54.464 7.23983 3.368573 32.671957 30.433657
2003-03-11 07:56:44 51°14.343 2°54.463 7.23983 3.375841 32.754157 30.534785
2003-03-11 07:56:49 51°14.34 2°54.462 7.234543 3.408786 31.162472 30.939298
2003-03-11 07:56:54 51°14.337 2°54.461 7.232487 3.393115 32.941804 31.242683
2003-03-11 07:56:59 51°14.334 2°54.46 7.232487 3.393115 32.941804 31.242683
2003-03-11 07:57:04 51°14.331 2°54.459 7.226808 3.401226 33.034833 31.984289
2003-03-11 07:57:09 51°14.329 2°54.458 7.229354 3.39775 33.001374 31.41123
2003-03-11 07:57:14 51°14.326 2°54.458 7.225682 3.404702 33.075527 31.613486
2003-03-11 07:57:19 51°14.324 2°54.456 7.222793 3.405861 33.090436 31.883161
2003-03-11 07:57:24 51°14.321 2°54.456 7.223577 3.413445 33.173052 31.916871
2003-03-11 07:57:29 51°14.319 2°54.455 7.223577 3.413445 33.173052 31.916871
2003-03-11 07:57:34 51°14.316 2°54.454 7.22671 3.405018 33.086175 31.37752
2003-03-11 07:57:39 51°14.314 2°54.454 7.224996 3.415763 33.205323 31.95058
2003-03-11 07:57:44 51°14.311 2°54.453 7.223577 3.420819 33.263134 31.883161
2003-03-11 07:57:48 51°14.309 2°54.453 7.220247 3.417659 33.22902 32.051708
2003-03-11 07:57:54 51°14.306 2°54.451 7.221814 3.423347 33.292049 31.849452
2003-03-11 07:57:58 51°14.304 2°54.45 7.221814 3.423347 33.292049 31.849452
2003-03-11 07:58:03 51°14.302 2°54.45 7.220002 3.415447 33.206759 32.017999
2003-03-11 07:58:08 51°14.299 2°54.449 7.219757 3.425348 33.313661 31.95058
2003-03-11 07:58:14 51°14.296 2°54.447 7.218484 3.422083 33.28164 31.849452
2003-03-11 07:58:18 51°14.294 2°54.446 7.222842 3.427666 33.343556 31.815742
2003-03-11 07:58:24 51°14.292 2°54.444 7.21961 3.429351 33.361762 31.815742
2003-03-11 07:58:28 51°14.29 2°54.443 7.21961 3.429351 33.361762 31.815742
2003-03-11 07:58:32 51°14.289 2°54.441 7.219121 3.427034 33.339163 31.647195
2003-03-11 07:58:38 51°14.286 2°54.439 7.216525 3.417764 33.238243 32.658477
2003-03-11 07:58:43 51°14.285 2°54.437 7.215742 3.42577 33.325509 32.860734
2003-03-11 07:58:49 51°14.283 2°54.435 7.216036 3.4303 33.375252 32.48993
2003-03-11 07:58:54 51°14.281 2°54.433 7.21535 3.425981 33.328596 32.591059
2003-03-11 07:58:59 51°14.279 2°54.431 7.21535 3.425981 33.328596 32.591059
2003-03-11 07:59:04 51°14.277 2°54.428 7.216428 3.424611 33.313804 32.186546
2003-03-11 07:59:08 51°14.276 2°54.426 7.223626 3.42103 33.275933 32.658477
2003-03-11 07:59:14 51°14.274 2°54.423 7.220492 3.429667 33.369236 32.827024
2003-03-11 07:59:19 51°14.273 2°54.421 7.218582 3.434935 33.427773 32.591059
2003-03-11 07:59:24 51°14.271 2°54.419 7.217897 3.435883 33.435578 32.321383
2003-03-11 07:59:28 51°14.27 2°54.416 7.217897 3.435883 33.435578 32.321383
2003-03-11 07:59:34 51°14.269 2°54.412 7.216966 3.436093 33.441924 32.827024
2003-03-11 07:59:39 51°14.268 2°54.409 7.217162 3.435988 33.439158 32.658477
2003-03-11 07:59:44 51°14.267 2°54.406 7.216379 3.436515 33.445664 33.501212
2003-03-11 07:59:49 51°14.266 2°54.403 7.216966 3.436831 33.44908 33.602341
2003-03-11 07:59:54 51°14.265 2°54.399 7.218729 3.436409 33.443712 33.265247
2003-03-11 07:59:59 51°14.265 2°54.396 7.218729 3.436409 33.443712 33.265247
2003-03-11 08:00:04 51°14.264 2°54.393 7.219121 3.437568 33.457864 33.737178
2003-03-11 08:00:08 51°14.263 2°54.39 7.219268 3.437357 33.45803 34.310238
2003-03-11 08:00:14 51°14.263 2°54.386 7.219317 3.437673 33.460632 33.872016
2003-03-11 08:00:19 51°14.263 2°54.382 7.224507 3.438095 33.464372 33.737178
2003-03-11 08:00:24 51°14.262 2°54.379 7.21917 3.437357 33.455587 33.838306
2003-03-11 08:00:28 51°14.262 2°54.376 7.21917 3.437357 33.455587 33.838306
2003-03-11 08:00:34 51°14.262 2°54.371 7.220247 3.437568 33.459493 33.467503
2003-03-11 08:00:38 51°14.261 2°54.365 7.220198 3.438516 33.468927 33.838306
2003-03-11 08:00:44 51°14.26 2°54.356 7.220002 3.438305 33.466649 33.669759
2003-03-11 08:00:49 51°14.258 2°54.345 7.221226 3.437884 33.46128 33.669759
2003-03-11 08:00:54 51°14.256 2°54.334 7.220198 3.438305 33.462577 34.647332
2003-03-11 08:00:58 51°14.253 2°54.324 7.220198 3.438305 33.462577 34.647332
2003-03-11 08:01:04 51°14.247 2°54.307 7.219415 3.434619 33.423545 34.377657
2003-03-11 08:01:08 51°14.243 2°54.295 7.222744 3.436409 33.444526 34.579913
2003-03-11 08:01:14 51°14.236 2°54.275 7.22955 3.435461 33.435907 35.018136
2003-03-11 08:01:19 51°14.229 2°54.257 7.225878 3.438832 33.473157 34.546204
2003-03-11 08:01:24 51°14.223 2°54.238 7.225486 3.431669 33.39655 34.242819
2003-03-11 08:01:29 51°14.216 2°54.219 7.225486 3.431669 33.39655 34.242819
2003-03-11 08:01:34 51°14.209 2°54.199 7.222304 3.437357 33.460474 34.815879
2003-03-11 08:01:39 51°14.202 2°54.178 7.226612 3.438306 33.468278 34.917007
2003-03-11 08:01:44 51°14.195 2°54.157 7.223968 3.439254 33.475268 34.512494
2003-03-11 08:01:48 51°14.189 2°54.141 7.223626 3.438621 33.467621 34.546204
2003-03-11 08:01:54 51°14.18 2°54.115 7.226612 3.436936 33.44859 34.78217
2003-03-11 08:01:58 51°14.173 2°54.098 7.226612 3.436936 33.44859 34.78217
2003-03-11 08:02:03 51°14.166 2°54.077 7.222255 3.437568 33.455421 34.546204
2003-03-11 08:02:08 51°14.158 2°54.055 7.222891 3.438411 33.466159 34.040563
2003-03-11 08:02:14 51°14.148 2°54.029 7.21868 3.437357 33.45233 34.579913
2003-03-11 08:02:19 51°14.141 2°54.007 7.219855 3.434408 33.418828 34.579913
2003-03-11 08:02:24 51°14.133 2°53.985 7.217162 3.439043 33.470546 34.1754
2003-03-11 08:02:28 51°14.126 2°53.967 7.217162 3.439043 33.470546 34.1754
2003-03-11 08:02:34 51°14.117 2°53.94 7.217407 3.435251 33.429561 34.1754
2003-03-11 08:02:38 51°14.11 2°53.922 7.220884 3.438727 33.467131 34.377657
2003-03-11 08:02:44 51°14.101 2°53.896 7.223136 3.438621 33.465992 34.681042
2003-03-11 08:02:49 51°14.093 2°53.874 7.220835 3.438411 33.465344 34.478785
2003-03-11 08:02:54 51°14.085 2°53.851 7.224213 3.435461 33.435093 34.78217
2003-03-11 08:02:58 51°14.078 2°53.833 7.224213 3.435461 33.435093 34.78217
2003-03-11 08:03:04 51°14.069 2°53.806 7.217799 3.438516 33.469741 34.343947
2003-03-11 08:03:08 51°14.062 2°53.788 7.223381 3.438516 33.469741 34.984426
2003-03-11 08:03:14 51°14.052 2°53.761 7.22103 3.438411 33.468603 34.74846
2003-03-11 08:03:18 51°14.046 2°53.743 7.225192 3.438832 33.473972 34.1754
2003-03-11 08:03:24 51°14.036 2°53.716 7.221373 3.438516 33.468927 34.849589
2003-03-11 08:03:28 51°14.029 2°53.698 7.221373 3.438516 33.468927 34.849589
2003-03-11 08:03:33 51°14.021 2°53.675 7.224066 3.437884 33.462909 34.512494
2003-03-11 08:03:39 51°14.011 2°53.648 7.221667 3.439464 33.47999 34.681042
2003-03-11 08:03:44 51°14.004 2°53.625 7.221128 3.438516 33.469741 34.883298
2003-03-11 08:03:48 51°13.997 2°53.607 7.23097 3.43957 33.478684 34.984426
2003-03-11 08:03:53 51°13.989 2°53.585 7.22813 3.436515 33.446478 34.512494
2003-03-11 08:03:59 51°13.979 2°53.558 7.22813 3.436515 33.446478 34.512494
2003-03-11 08:04:04 51°13.971 2°53.535 7.224996 3.435883 33.439647 34.849589
2003-03-11 08:04:09 51°13.963 2°53.513 7.223723 3.437357 33.453958 35.018136
2003-03-11 08:04:14 51°13.955 2°53.49 7.219072 3.4382 33.46551 34.546204
2003-03-11 08:04:19 51°13.947 2°53.468 7.2201 3.4382 33.464696 34.512494
2003-03-11 08:04:24 51°13.939 2°53.446 7.213636 3.439886 33.481285 34.78217
2003-03-11 08:04:28 51°13.932 2°53.428 7.213636 3.439886 33.481285 34.78217
2003-03-11 08:04:34 51°13.923 2°53.401 7.213881 3.432933 33.402893 34.984426
2003-03-11 08:04:38 51°13.916 2°53.382 7.20918 3.439254 33.472009 34.579913
2003-03-11 08:04:43 51°13.908 2°53.36 7.212902 3.43978 33.481776 34.78217
2003-03-11 08:04:48 51°13.9 2°53.337 7.209131 3.435988 33.440786 34.815879
2003-03-11 08:04:54 51°13.89 2°53.31 7.209718 3.43504 33.433794 35.018136
2003-03-11 08:04:59 51°13.882 2°53.287 7.209718 3.43504 33.433794 35.018136
2003-03-11 08:05:04 51°13.874 2°53.264 7.198013 3.43957 33.485204 34.445076
2003-03-11 08:05:09 51°13.866 2°53.241 7.195564 3.439254 33.483418 34.883298
2003-03-11 08:05:14 51°13.858 2°53.218 7.191694 3.440202 33.4953 34.681042
2003-03-11 08:05:18 51°13.851 2°53.2 7.192086 3.433355 33.4229 34.815879
2003-03-11 08:05:24 51°13.841 2°53.172 7.191596 3.439675 33.492866 35.422648
2003-03-11 08:05:29 51°13.832 2°53.148 7.191596 3.439675 33.492866 35.422648
2003-03-11 08:05:34 51°13.823 2°53.124 7.190077 3.440096 33.498239 35.827161
2003-03-11 08:05:38 51°13.816 2°53.105 7.184149 3.437147 33.472049 36.231674
2003-03-11 08:05:44 51°13.806 2°53.075 7.182728 3.439254 33.496466 36.029418
2003-03-11 08:05:49 51°13.797 2°53.05 7.184639 3.438622 33.494525 36.029418
2003-03-11 08:05:54 51°13.788 2°53.025 7.175036 3.439149 33.503488 36.669896
2003-03-11 08:05:58 51°13.782 2°53.005 7.175036 3.439149 33.503488 36.669896
2003-03-11 08:06:04 51°13.77 2°52.975 7.176261 3.439781 33.513592 35.860871
2003-03-11 08:06:09 51°13.762 2°52.949 7.177878 3.438622 33.498605 36.703606
2003-03-11 08:06:14 51°13.753 2°52.923 19.309931 3.435462 33.468495 37.310375
2003-03-11 08:06:19 51°13.745 2°52.897 9.309062 3.43325 33.446193 36.669896
2003-03-11 08:06:24 51°13.736 2°52.871 8.954754 3.439254 33.511976 37.377794
2003-03-11 08:06:29 51°13.728 2°52.845 8.954754 3.439254 33.511976 37.377794
2003-03-11 08:06:34 51°13.719 2°52.818 8.993874 3.439043 33.512963 36.636187
2003-03-11 08:06:39 51°13.711 2°52.791 9.261072 3.439254 33.517693 36.501349
2003-03-11 08:06:44 51°13.703 2°52.765 9.500949 3.438517 33.508896 36.872153
2003-03-11 08:06:48 51°13.696 2°52.744 9.101294 3.435567 33.479424 36.265383
2003-03-11 08:06:54 51°13.685 2°52.713 8.790443 3.438201 33.508743 36.231674
2003-03-11 08:06:59 51°13.676 2°52.686 8.790443 3.438201 33.508743 36.231674
2003-03-11 08:07:04 51°13.667 2°52.659 9.138186 3.438517 33.515431 35.961999
2003-03-11 08:07:08 51°13.66 2°52.638 9.09592 3.437779 33.509083 35.523777
2003-03-11 08:07:14 51°13.65 2°52.606 8.743455 3.439781 33.532385 35.726033
2003-03-11 08:07:19 51°13.641 2°52.579 8.940073 3.43799 33.511363 35.32152
2003-03-11 08:07:24 51°13.632 2°52.553 8.741255 3.432196 33.447839 35.186683
2003-03-11 08:07:29 51°13.622 2°52.525 8.741255 3.432196 33.447839 35.186683
2003-03-11 08:07:34 51°13.614 2°52.499 8.504062 3.437885 33.515126 34.411366
2003-03-11 08:07:38 51°13.607 2°52.478 9.086313 3.439149 33.530447 34.411366
2003-03-11 08:07:44 51°13.597 2°52.447 9.198899 3.437147 33.50796 33.838306
2003-03-11 08:07:49 51°13.588 2°52.42 8.733364 3.437885 33.522482 34.343947
2003-03-11 08:07:54 51°13.58 2°52.394 8.886084 3.437358 33.518414 33.669759
2003-03-11 08:07:58 51°13.573 2°52.373 8.886084 3.437358 33.518414 33.669759
2003-03-11 08:08:04 51°13.562 2°52.341 8.684132 3.433671 33.480124 33.804597
2003-03-11 08:08:08 51°13.555 2°52.319 8.879833 3.432829 33.475082 33.905725
2003-03-11 08:08:12 51°13.548 2°52.298 8.922813 3.435989 33.510941 33.737178
2003-03-11 08:08:18 51°13.538 2°52.266 9.152538 3.43778 33.530338 33.231537
2003-03-11 08:08:24 51°13.527 2°52.234 8.838544 3.438517 33.541598 33.130409
2003-03-11 08:08:28 51°13.52 2°52.213 8.838544 3.438517 33.541598 33.130409
2003-03-11 08:08:32 51°13.513 2°52.192 8.837016 3.436305 33.521724 33.231537
2003-03-11 08:08:38 51°13.503 2°52.16 9.070804 3.429879 33.45457 33.433794
2003-03-11 08:08:44 51°13.492 2°52.129 9.415441 3.441783 33.586812 33.63605
2003-03-11 08:08:49 51°13.484 2°52.102 9.30342 3.436516 33.526461 33.838306
2003-03-11 08:08:54 51°13.475 2°52.076 8.910651 3.438517 33.551422 33.905725
2003-03-11 08:08:58 51°13.468 2°52.055 8.910651 3.438517 33.551422 33.905725
2003-03-11 08:09:04 51°13.458 2°52.023 9.06695 3.435568 33.521916 34.141691
2003-03-11 08:09:08 51°13.452 2°52.001 9.028732 3.436832 33.536432 33.737178
2003-03-11 08:09:14 51°13.441 2°51.969 9.30086 3.437464 33.54492 33.501212
2003-03-11 08:09:19 51°13.433 2°51.942 9.263539 3.438623 33.559116 33.534922
2003-03-11 08:09:24 51°13.424 2°51.916 8.95404 3.440097 33.575921 33.838306
2003-03-11 08:09:28 51°13.418 2°51.895 8.95404 3.440097 33.575921 33.838306
2003-03-11 08:09:34 51°13.407 2°51.863 9.344651 3.432407 33.491762 33.973144
2003-03-11 08:09:39 51°13.398 2°51.836 9.340672 3.438833 33.5614 33.703469
2003-03-11 08:09:44 51°13.389 2°51.81 9.346878 3.439044 33.566142 33.298956
2003-03-11 08:09:48 51°13.383 2°51.788 9.110044 3.439044 33.564503 33.905725
2003-03-11 08:09:54 51°13.372 2°51.756 8.63812 3.438517 33.559613 33.568631
2003-03-11 08:09:59 51°13.363 2°51.73 8.63812 3.438517 33.559613 33.568631
2003-03-11 08:10:04 51°13.354 2°51.703 8.558755 3.438623 33.559116 33.703469
2003-03-11 08:10:08 51°13.347 2°51.682 9.18432 3.436516 33.536282 33.400084
2003-03-11 08:10:12 51°13.34 2°51.66 9.108189 3.438728 33.559439 33.433794
2003-03-11 08:10:18 51°13.33 2°51.628 8.563694 3.432407 33.490945 33.602341
2003-03-11 08:10:24 51°13.319 2°51.596 8.402614 3.439149 33.565645 33.534922
2003-03-11 08:10:29 51°13.311 2°51.569 8.402614 3.439149 33.565645 33.534922
2003-03-11 08:10:34 51°13.302 2°51.542 8.755217 3.435146 33.523896 33.501212
2003-03-11 08:10:38 51°13.295 2°51.521 8.868809 3.439781 33.574135 33.703469
2003-03-11 08:10:44 51°13.284 2°51.489 8.790491 3.439044 33.566961 33.366375
2003-03-11 08:10:49 51°13.275 2°51.462 8.986157 3.436832 33.53807 32.894443
2003-03-11 08:10:54 51°13.267 2°51.435 8.700164 3.438833 33.563039 33.197828
2003-03-11 08:10:58 51°13.26 2°51.414 8.700164 3.438833 33.563039 33.197828
2003-03-11 08:11:04 51°13.249 2°51.382 8.986442 3.434198 33.516077 33.433794
2003-03-11 08:11:09 51°13.241 2°51.355 9.336692 3.438517 33.562891 33.400084
2003-03-11 08:11:14 51°13.232 2°51.328 8.793358 3.438623 33.563213 33.231537
2003-03-11 08:11:19 51°13.223 2°51.302 8.828086 3.439781 33.577414 33.737178
2003-03-11 08:11:24 51°13.214 2°51.275 8.676043 3.435252 33.529131 33.703469
2003-03-11 08:11:29 51°13.206 2°51.248 8.676043 3.435252 33.529131 33.703469
2003-03-11 08:11:34 51°13.197 2°51.221 8.908887 3.438307 33.559788 33.602341
2003-03-11 08:11:38 51°13.19 2°51.2 8.588193 3.437359 33.551968 33.467503
2003-03-11 08:11:44 51°13.179 2°51.168 8.982107 3.436937 33.54822 33.534922
2003-03-11 08:11:48 51°13.172 2°51.147 8.824552 3.439676 33.577912 33.366375
2003-03-11 08:11:54 51°13.162 2°51.115 8.979248 3.437359 33.554426 33.770888
2003-03-11 08:11:59 51°13.153 2°51.088 8.979248 3.437359 33.554426 33.770888
2003-03-11 08:12:03 51°13.147 2°51.067 8.664889 3.439781 33.578234 33.669759
2003-03-11 08:12:08 51°13.138 2°51.04 8.785569 3.438833 33.568776 33.973144
2003-03-11 08:12:14 51°13.128 2°51.009 8.823883 3.432724 33.504184 34.613623
2003-03-11 08:12:18 51°13.121 2°50.987 9.098108 3.433145 33.512024 34.343947
2003-03-11 08:12:24 51°13.11 2°50.955 8.632899 3.433356 33.514308 34.74846
2003-03-11 08:12:29 51°13.101 2°50.929 8.632899 3.433356 33.514308 34.74846
2003-03-11 08:12:34 51°13.093 2°50.903 8.396605 3.432197 33.50502 34.714751
2003-03-11 08:12:39 51°13.084 2°50.877 9.034826 3.435989 33.545315 34.276529
2003-03-11 08:12:44 51°13.075 2°50.85 8.840311 3.438412 33.569946 34.20911
2003-03-11 08:12:49 51°13.067 2°50.824 8.454895 3.435146 33.523078 34.310238
2003-03-11 08:12:54 51°13.058 2°50.797 8.736282 3.440413 33.590008 33.838306
2003-03-11 08:12:59 51°13.05 2°50.771 8.736282 3.440413 33.590008 33.838306
2003-03-11 08:13:04 51°13.041 2°50.744 8.780647 3.432618 33.507133 33.366375
2003-03-11 08:13:08 51°13.034 2°50.723 8.933875 3.441151 33.595542 32.759606
2003-03-11 08:13:14 51°13.024 2°50.691 9.092258 3.43641 33.540053 32.321383
2003-03-11 08:13:19 51°13.015 2°50.665 8.744459 3.442204 33.59712 32.119127
2003-03-11 08:13:24 51°13.006 2°50.639 9.141276 3.441783 33.585993 31.208973
2003-03-11 08:13:28 51°12.999 2°50.618 9.141276 3.441783 33.585993 31.208973
2003-03-11 08:13:34 51°12.989 2°50.587 8.710451 3.433987 33.499071 30.80446
2003-03-11 08:13:39 51°12.981 2°50.561 8.670921 3.443363 33.594919 29.658341
2003-03-11 08:13:44 51°12.972 2°50.534 8.943743 3.441572 33.576334 29.894306
2003-03-11 08:13:48 51°12.965 2°50.513 8.940788 3.438096 33.535397 29.759469
2003-03-11 08:13:54 51°12.955 2°50.481 8.663548 3.439254 33.546313 29.354956
2003-03-11 08:13:59 51°12.946 2°50.455 8.663548 3.439254 33.546313 29.354956
2003-03-11 08:14:04 51°12.938 2°50.428 8.972101 3.436515 33.516645 29.11899
2003-03-11 08:14:08 51°12.931 2°50.407 8.858881 3.438728 33.535698 29.186409
2003-03-11 08:14:14 51°12.92 2°50.375 8.77496 3.439781 33.547926 29.422375
2003-03-11 08:14:18 51°12.913 2°50.354 8.84647 3.437253 33.515638 29.456084
2003-03-11 08:14:24 51°12.903 2°50.322 8.611724 3.440202 33.553309 30.2314
2003-03-11 08:14:29 51°12.894 2°50.296 8.611724 3.440202 33.553309 30.2314
2003-03-11 08:14:34 51°12.886 2°50.269 8.771757 3.443679 33.595884 30.635913
2003-03-11 08:14:39 51°12.877 2°50.243 8.802149 3.441045 33.56735 30.973007
2003-03-11 08:14:44 51°12.868 2°50.216 8.955231 3.441783 33.578617 31.613486
2003-03-11 08:14:48 51°12.861 2°50.195 8.875634 3.445154 33.615966 32.388802
2003-03-11 08:14:54 51°12.851 2°50.163 8.879594 3.43957 33.557923 31.984289
2003-03-11 08:14:59 51°12.842 2°50.136 8.879594 3.43957 33.557923 31.984289
2003-03-11 08:15:04 51°12.833 2°50.109 9.032541 3.444838 33.617463 32.658477
2003-03-11 08:15:09 51°12.825 2°50.083 8.752348 3.438517 33.549784 33.366375
2003-03-11 08:15:14 51°12.816 2°50.056 8.513229 3.4441 33.612752 32.894443
2003-03-11 08:15:18 51°12.809 2°50.035 9.059004 3.444522 33.615678 33.197828
2003-03-11 08:15:23 51°12.801 2°50.008 8.627486 3.43778 33.542613 33.838306
2003-03-11 08:15:28 51°12.792 2°49.981 8.627486 3.43778 33.542613 33.838306
2003-03-11 08:15:34 51°12.781 2°49.949 8.786047 3.439149 33.566464 33.939435
2003-03-11 08:15:39 51°12.773 2°49.923 8.97477 3.43936 33.572846 34.1754
2003-03-11 08:15:44 51°12.764 2°49.896 9.284313 3.443574 33.616889 34.445076
2003-03-11 08:15:49 51°12.755 2°49.869 8.656318 3.442731 33.611035 35.051845
2003-03-11 08:15:54 51°12.747 2°49.842 8.38444 3.43936 33.576126 35.220392
2003-03-11 08:15:59 51°12.738 2°49.816 8.38444 3.43936 33.576126 35.220392
2003-03-11 08:16:04 51°12.729 2°49.789 8.378766 3.439887 33.585117 35.591195
2003-03-11 08:16:08 51°12.722 2°49.767 8.777158 3.443152 33.622172 35.759742
2003-03-11 08:16:12 51°12.715 2°49.746 8.185107 3.43936 33.585147 36.332802
2003-03-11 08:16:18 51°12.704 2°49.714 8.656175 3.441888 33.613388 35.591195
2003-03-11 08:16:24 51°12.694 2°49.682 9.090641 3.442204 33.620101 35.624905
2003-03-11 08:16:29 51°12.685 2°49.655 9.090641 3.442204 33.620101 35.624905
2003-03-11 08:16:34 51°12.677 2°49.628 8.658329 3.441888 33.616673 35.759742
2003-03-11 08:16:38 51°12.67 2°49.607 8.931014 3.441994 33.62028 35.152973
2003-03-11 08:16:44 51°12.659 2°49.575 8.810748 3.439255 33.588928 34.883298
2003-03-11 08:16:48 51°12.652 2°49.554 8.890664 3.439466 33.593675 34.849589
2003-03-11 08:16:54 51°12.642 2°49.522 9.003686 3.440624 33.605424 34.78217
2003-03-11 08:16:58 51°12.635 2°49.5 9.003686 3.440624 33.605424 34.78217
2003-03-11 08:17:04 51°12.624 2°49.469 9.0054 3.439782 33.597103 34.242819
2003-03-11 08:17:09 51°12.616 2°49.442 9.004543 3.441256 33.611459 34.883298
2003-03-11 08:17:14 51°12.607 2°49.415 8.379343 3.438096 33.579641 34.883298
2003-03-11 08:17:18 51°12.6 2°49.394 9.006638 3.435989 33.55843 34.512494
2003-03-11 08:17:24 51°12.59 2°49.362 8.499934 3.435884 33.557287 34.984426
2003-03-11 08:17:28 51°12.583 2°49.341 8.499934 3.435884 33.557287 34.984426
2003-03-11 08:17:34 51°12.573 2°49.308 8.53813 3.435779 33.563525 34.445076
2003-03-11 08:17:39 51°12.564 2°49.28 8.888851 3.442099 33.627996 34.343947
2003-03-11 08:17:44 51°12.555 2°49.253 8.811083 3.439887 33.602351 33.872016
2003-03-11 08:17:49 51°12.546 2°49.226 8.849764 3.437043 33.568215 34.20911
2003-03-11 08:17:54 51°12.537 2°49.2 8.615269 3.439044 33.59485 33.534922
2003-03-11 08:17:59 51°12.529 2°49.173 8.615269 3.439044 33.59485 33.534922
2003-03-11 08:18:04 51°12.52 2°49.146 8.655073 3.434936 33.546184 33.501212
2003-03-11 08:18:08 51°12.513 2°49.125 8.581529 3.442731 33.631567 33.231537
2003-03-11 08:18:14 51°12.502 2°49.093 8.818439 3.440414 33.607244 33.400084
2003-03-11 08:18:19 51°12.494 2°49.066 8.890664 3.442099 33.623066 32.725896
2003-03-11 08:18:24 51°12.485 2°49.039 9.28289 3.435779 33.557784 32.725896
2003-03-11 08:18:29 51°12.476 2°49.012 9.28289 3.435779 33.557784 32.725896
2003-03-11 08:18:34 51°12.468 2°48.985 8.697293 3.441572 33.618994 33.029281
2003-03-11 08:18:38 51°12.461 2°48.964 8.779739 3.442626 33.629602 32.793315
2003-03-11 08:18:43 51°12.452 2°48.937 8.700212 3.442204 33.62503 32.725896
2003-03-11 08:18:48 51°12.443 2°48.91 8.662303 3.435884 33.556467 32.085418
2003-03-11 08:18:54 51°12.433 2°48.879 9.093495 3.435673 33.554182 32.557349
2003-03-11 08:18:59 51°12.425 2°48.853 9.093495 3.435673 33.554182 32.557349
2003-03-11 08:19:04 51°12.416 2°48.828 9.133101 3.441151 33.611959 32.422512
2003-03-11 08:19:09 51°12.407 2°48.801 8.974007 3.438307 33.580286 32.355093
2003-03-11 08:19:14 51°12.399 2°48.774 9.012924 3.440098 33.59889 31.916871
2003-03-11 08:19:19 51°12.389 2°48.747 8.658329 3.437043 33.565755 31.815742
2003-03-11 08:19:24 51°12.38 2°48.721 8.621546 3.44094 33.60721 31.782033
2003-03-11 08:19:29 51°12.371 2°48.695 8.621546 3.44094 33.60721 31.782033
2003-03-11 08:19:34 51°12.362 2°48.668 8.540865 3.436727 33.559868 31.680905
2003-03-11 08:19:39 51°12.353 2°48.642 8.422465 3.442942 33.6281 31.310101
2003-03-11 08:19:44 51°12.344 2°48.616 8.658186 3.437569 33.569827 31.37752
2003-03-11 08:19:49 51°12.335 2°48.59 8.772904 3.44389 33.642495 30.939298
2003-03-11 08:19:54 51°12.326 2°48.564 8.655552 3.444206 33.64428 30.871879
2003-03-11 08:19:58 51°12.319 2°48.543 8.655552 3.444206 33.64428 30.871879
2003-03-11 08:20:04 51°12.309 2°48.511 8.49379 3.444522 33.646887 30.905589
2003-03-11 08:20:09 51°12.3 2°48.485 8.571222 3.443995 33.641994 31.444939
2003-03-11 08:20:14 51°12.291 2°48.458 8.720976 3.44389 33.642495 31.074136
2003-03-11 08:20:18 51°12.283 2°48.438 9.071233 3.444101 33.645603 31.040426
2003-03-11 08:20:24 51°12.273 2°48.406 8.98892 3.444206 33.646746 30.973007
2003-03-11 08:20:28 51°12.265 2°48.385 8.98892 3.444206 33.646746 30.973007
2003-03-11 08:20:34 51°12.254 2°48.353 8.991683 3.443995 33.64446 31.714614
2003-03-11 08:20:39 51°12.245 2°48.326 8.831286 3.443995 33.646927 31.276392
2003-03-11 08:20:44 51°12.236 2°48.299 8.910938 3.444206 33.647568 31.512358
2003-03-11 08:20:48 51°12.228 2°48.278 8.827895 3.443363 33.644179 31.444939
2003-03-11 08:20:54 51°12.217 2°48.245 9.350526 3.443785 33.653687 31.006717
2003-03-11 08:20:59 51°12.209 2°48.219 9.350526 3.443785 33.653687 31.006717
2003-03-11 08:21:04 51°12.2 2°48.193 8.668479 3.443363 33.651581 31.613486
2003-03-11 08:21:09 51°12.191 2°48.166 8.85764 3.443574 33.655514 31.37752
2003-03-11 08:21:14 51°12.182 2°48.139 8.621642 3.443153 33.653408 31.714614
2003-03-11 08:21:19 51°12.173 2°48.112 8.891332 3.443047 33.653087 32.186546
2003-03-11 08:21:24 51°12.164 2°48.086 8.6556 3.443258 33.658666 31.782033
2003-03-11 08:21:29 51°12.155 2°48.059 8.6556 3.443258 33.658666 31.782033
2003-03-11 08:21:34 51°12.147 2°48.033 8.534197 3.443153 33.659992 32.624768
2003-03-11 08:21:39 51°12.138 2°48.006 9.078607 3.443574 33.66539 31.849452
2003-03-11 08:21:44 51°12.129 2°47.98 8.806592 3.442416 33.655277 31.815742
2003-03-11 08:21:48 51°12.122 2°47.958 8.406171 3.442416 33.65857 31.815742
2003-03-11 08:21:54 51°12.111 2°47.926 8.645735 3.4421 33.657608 32.220255
2003-03-11 08:21:58 51°12.104 2°47.905 8.645735 3.4421 33.657608 32.220255
2003-03-11 08:22:04 51°12.093 2°47.873 8.365829 3.441784 33.657469 32.355093
2003-03-11 08:22:09 51°12.084 2°47.847 8.363905 3.441362 33.653716 32.591059
2003-03-11 08:22:14 51°12.075 2°47.82 8.516492 3.441468 33.658154 32.422512
2003-03-11 08:22:19 51°12.067 2°47.795 8.514764 3.441678 33.66209 32.725896
2003-03-11 08:22:24 51°12.058 2°47.769 8.392855 3.441046 33.660166 32.557349
2003-03-11 08:22:28 51°12.051 2°47.748 8.392855 3.441046 33.660166 32.557349
2003-03-11 08:22:34 51°12.041 2°47.716 8.112232 3.44052 33.655267 32.48993
2003-03-11 08:22:39 51°12.032 2°47.69 8.466758 3.440098 33.651513 33.029281
2003-03-11 08:22:44 51°12.023 2°47.663 8.303606 3.440309 33.65792 33.400084
2003-03-11 08:22:48 51°12.016 2°47.642 8.460611 3.439993 33.65943 33.669759
2003-03-11 08:22:54 51°12.004 2°47.61 8.260453 3.439993 33.660254 33.130409
2003-03-11 08:22:59 51°11.995 2°47.583 8.260453 3.439993 33.660254 33.130409
2003-03-11 08:23:04 51°11.985 2°47.557 8.925054 3.439466 33.65865 33.332665
2003-03-11 08:23:08 51°11.978 2°47.535 8.452734 3.439466 33.660299 33.872016
2003-03-11 08:23:14 51°11.968 2°47.503 8.925006 3.43894 33.65787 33.669759
2003-03-11 08:23:18 51°11.961 2°47.482 8.248745 3.43894 33.662817 33.029281
2003-03-11 08:23:24 51°11.95 2°47.451 8.520043 3.438834 33.660847 33.534922
2003-03-11 08:23:29 51°11.941 2°47.424 8.520043 3.438834 33.660847 33.534922
2003-03-11 08:23:34 51°11.932 2°47.397 7.969718 3.438624 33.659381 33.433794
2003-03-11 08:23:39 51°11.923 2°47.371 9.064048 3.438413 33.662038 32.759606
2003-03-11 08:23:44 51°11.914 2°47.345 8.36275 3.438308 33.665016 32.793315
2003-03-11 08:23:48 51°11.907 2°47.324 8.121986 3.438413 33.665336 32.961862
2003-03-11 08:23:54 51°11.897 2°47.292 8.395451 3.437676 33.661441 33.029281
2003-03-11 08:23:59 51°11.888 2°47.265 8.395451 3.437676 33.661441 33.029281
2003-03-11 08:24:04 51°11.879 2°47.239 8.355102 3.437465 33.663275 32.52364
2003-03-11 08:24:09 51°11.87 2°47.213 8.704279 3.437465 33.66575 32.017999
2003-03-11 08:24:14 51°11.86 2°47.186 8.468487 3.43736 33.667904 32.119127
2003-03-11 08:24:18 51°11.852 2°47.165 8.113391 3.436938 33.663321 31.916871
2003-03-11 08:24:23 51°11.843 2°47.138 8.388239 3.437044 33.665292 32.220255
2003-03-11 08:24:28 51°11.834 2°47.111 8.388239 3.437044 33.665292 32.220255
2003-03-11 08:24:34 51°11.823 2°47.079 8.029314 3.437044 33.666942 31.815742
2003-03-11 08:24:39 51°11.814 2°47.053 8.816576 3.436728 33.668456 31.208973
2003-03-11 08:24:44 51°11.805 2°47.026 8.929965 3.436517 33.662038 31.748324
2003-03-11 08:24:49 51°11.796 2°46.999 8.88971 3.436307 33.665522 31.782033
2003-03-11 08:24:54 51°11.787 2°46.972 8.366887 3.436201 33.666853 31.276392
2003-03-11 08:24:59 51°11.778 2°46.945 8.366887 3.436201 33.666853 31.276392
2003-03-11 08:25:04 51°11.769 2°46.918 8.02211 3.436201 33.667678 31.242683
2003-03-11 08:25:08 51°11.762 2°46.896 8.811608 3.435991 33.666211 31.815742
2003-03-11 08:25:12 51°11.755 2°46.875 8.734177 3.436623 33.673915 31.242683
2003-03-11 08:25:18 51°11.744 2°46.843 8.923623 3.436307 33.672127 31.647195
2003-03-11 08:25:24 51°11.733 2°46.81 8.891666 3.435569 33.666579 31.41123
2003-03-11 08:25:29 51°11.724 2°46.783 8.891666 3.435569 33.666579 31.41123
2003-03-11 08:25:34 51°11.715 2°46.756 8.331092 3.435991 33.674469 31.37752
2003-03-11 08:25:38 51°11.709 2°46.734 8.290558 3.43736 33.690201 31.040426
2003-03-11 08:25:44 51°11.698 2°46.702 8.759042 3.435885 33.674148 30.669623
2003-03-11 08:25:48 51°11.69 2°46.68 8.329744 3.435675 33.674333 30.973007
2003-03-11 08:25:54 51°11.678 2°46.648 8.290269 3.436096 33.676441 30.602204
2003-03-11 08:25:58 51°11.671 2°46.627 8.290269 3.436096 33.676441 30.602204
2003-03-11 08:26:04 51°11.66 2°46.595 9.424054 3.435464 33.673691 30.568494
2003-03-11 08:26:09 51°11.652 2°46.568 8.683271 3.436096 33.683051 30.635913
2003-03-11 08:26:14 51°11.643 2°46.541 9.035064 3.435885 33.681583 30.2314
2003-03-11 08:26:18 51°11.636 2°46.52 8.050295 3.434621 33.669474 29.894306
2003-03-11 08:26:24 51°11.625 2°46.488 8.68284 3.435675 33.680942 30.096563
2003-03-11 08:26:28 51°11.618 2°46.466 8.68284 3.435675 33.680942 30.096563
2003-03-11 08:26:34 51°11.608 2°46.434 8.640228 3.43578 33.682916 29.793178
2003-03-11 08:26:39 51°11.599 2°46.408 8.602667 3.435253 33.678834 29.826888
2003-03-11 08:26:44 51°11.59 2°46.381 8.011325 3.434937 33.67374 30.163982
2003-03-11 08:26:48 51°11.583 2°46.36 8.327097 3.43578 33.684569 30.062853
2003-03-11 08:26:54 51°11.573 2°46.328 8.482316 3.435359 33.679154 29.928016
2003-03-11 08:26:59 51°11.564 2°46.302 8.482316 3.435359 33.679154 29.928016
2003-03-11 08:27:04 51°11.555 2°46.275 8.479051 3.435464 33.681954 29.860597
2003-03-11 08:27:08 51°11.548 2°46.253 8.759281 3.435675 33.683422 29.557212
2003-03-11 08:27:14 51°11.537 2°46.221 7.849874 3.435359 33.679981 29.759469
2003-03-11 08:27:19 51°11.528 2°46.195 8.445048 3.435464 33.682781 29.590922
2003-03-11 08:27:24 51°11.52 2°46.169 8.168754 3.436518 33.693425 29.456084
2003-03-11 08:27:29 51°11.511 2°46.143 8.168754 3.436518 33.693425 29.456084
2003-03-11 08:27:34 51°11.502 2°46.116 8.637258 3.435675 33.686728 29.220118
2003-03-11 08:27:39 51°11.493 2°46.089 8.125558 3.43578 33.689529 29.287537
2003-03-11 08:27:44 51°11.484 2°46.062 8.244264 3.43578 33.687049 28.984153
2003-03-11 08:27:48 51°11.477 2°46.042 8.561392 3.435464 33.686914 28.714477
2003-03-11 08:27:54 51°11.466 2°46.01 8.168271 3.435253 33.682966 28.883024
2003-03-11 08:27:59 51°11.457 2°45.983 8.168271 3.435253 33.682966 28.883024
2003-03-11 08:28:04 51°11.448 2°45.956 8.39348 3.43578 33.688702 28.680768
2003-03-11 08:28:08 51°11.441 2°45.935 8.364963 3.435675 33.688382 28.613349
2003-03-11 08:28:14 51°11.43 2°45.903 8.148101 3.435464 33.685261 28.680768
2003-03-11 08:28:18 51°11.423 2°45.881 8.522154 3.43578 33.688702 28.411093
2003-03-11 08:28:24 51°11.413 2°45.849 8.288391 3.435991 33.691823 28.411093
2003-03-11 08:28:29 51°11.404 2°45.822 8.288391 3.435991 33.691823 28.411093
2003-03-11 08:28:34 51°11.395 2°45.796 8.006924 3.434832 33.678378 28.208836
2003-03-11 08:28:39 51°11.385 2°45.769 8.285501 3.436412 33.696412 28.242546
2003-03-11 08:28:44 51°11.375 2°45.743 8.679585 3.436307 33.695265 28.073999
2003-03-11 08:28:48 51°11.368 2°45.721 8.486925 3.436518 33.697559 28.208836
2003-03-11 08:28:54 51°11.357 2°45.689 8.216934 3.436202 33.692464 28.208836
2003-03-11 08:28:59 51°11.348 2°45.663 8.216934 3.436202 33.692464 28.208836
2003-03-11 08:29:04 51°11.339 2°45.636 8.175267 3.436307 33.692784 27.197554
2003-03-11 08:29:09 51°11.331 2°45.609 8.29494 3.43578 33.687875 27.332392
2003-03-11 08:29:14 51°11.322 2°45.583 8.452109 3.435991 33.691823 27.197554
2003-03-11 08:29:18 51°11.315 2°45.561 8.21597 3.435991 33.689343 26.961589
2003-03-11 08:29:23 51°11.306 2°45.535 8.925435 3.435991 33.68521 26.995298
2003-03-11 08:29:28 51°11.297 2°45.509 8.925435 3.435991 33.68521 26.995298
2003-03-11 08:29:34 51°11.287 2°45.477 8.846899 3.436623 33.692091 26.658204
2003-03-11 08:29:39 51°11.278 2°45.45 8.57755 3.436623 33.689612 26.455947
2003-03-11 08:29:44 51°11.269 2°45.423 8.811178 3.436412 33.684838 26.725623
2003-03-11 08:29:48 51°11.262 2°45.402 8.422513 3.436728 33.694065 26.489657
2003-03-11 08:29:54 51°11.252 2°45.37 8.656175 3.436623 33.688785 26.354819
2003-03-11 08:29:59 51°11.243 2°45.344 8.656175 3.436623 33.688785 26.354819
2003-03-11 08:30:04 51°11.234 2°45.317 8.421744 3.436517 33.685985 26.219982
2003-03-11 08:30:08 51°11.227 2°45.295 8.506462 3.438098 33.700708 26.219982
2003-03-11 08:30:14 51°11.216 2°45.264 8.469159 3.436728 33.684973 26.219982
2003-03-11 08:30:19 51°11.207 2°45.237 8.507806 3.436517 33.683506 26.085144
2003-03-11 08:30:24 51°11.199 2°45.21 8.270714 3.436517 33.681028 26.793042
2003-03-11 08:30:28 51°11.192 2°45.189 8.270714 3.436517 33.681028 26.793042
2003-03-11 08:30:34 51°11.181 2°45.157 8.426501 3.436833 33.684468 27.062717
2003-03-11 08:30:39 51°11.172 2°45.13 8.352408 3.436728 33.681669 26.523366
2003-03-11 08:30:44 51°11.163 2°45.103 8.317326 3.436833 33.681989 27.163845
2003-03-11 08:30:49 51°11.154 2°45.076 8.400643 3.436623 33.676392 26.927879
2003-03-11 08:30:54 51°11.145 2°45.05 8.556932 3.437149 33.681298 26.927879
2003-03-11 08:30:59 51°11.136 2°45.023 8.556932 3.437149 33.681298 26.927879
2003-03-11 08:31:04 51°11.127 2°44.996 8.285742 3.436728 33.676713 26.927879
2003-03-11 08:31:09 51°11.118 2°44.969 8.247107 3.436623 33.673915 27.163845
2003-03-11 08:31:14 51°11.109 2°44.943 8.680303 3.436623 33.671438 26.927879
2003-03-11 08:31:19 51°11.1 2°44.916 8.917758 3.436623 33.670612 27.231264
2003-03-11 08:31:24 51°11.091 2°44.889 8.445048 3.436517 33.666164 27.197554
2003-03-11 08:31:28 51°11.084 2°44.868 8.445048 3.436517 33.666164 27.197554
2003-03-11 08:31:34 51°11.073 2°44.836 8.098033 3.437781 33.678267 27.46723
2003-03-11 08:31:39 51°11.064 2°44.809 8.570551 3.436412 33.660066 27.534648
2003-03-11 08:31:44 51°11.055 2°44.782 8.298743 3.436306 33.65727 27.298683
2003-03-11 08:31:49 51°11.046 2°44.755 8.693178 3.436728 33.661029 27.939161
2003-03-11 08:31:54 51°11.038 2°44.728 8.578461 3.436096 33.654154 27.736905
2003-03-11 08:31:58 51°11.031 2°44.707 8.578461 3.436096 33.654154 27.736905
2003-03-11 08:32:04 51°11.02 2°44.675 8.61709 3.436938 33.661671 28.276255
2003-03-11 08:32:09 51°11.011 2°44.648 8.505454 3.437254 33.663458 28.411093
2003-03-11 08:32:14 51°11.002 2°44.621 8.231203 3.437044 33.656217 28.242546
2003-03-11 08:32:18 51°10.995 2°44.599 8.469688 3.436517 33.64884 28.916734
2003-03-11 08:32:24 51°10.985 2°44.567 8.590589 3.437044 33.650445 28.680768
2003-03-11 08:32:29 51°10.975 2°44.54 8.590589 3.437044 33.650445 28.680768
2003-03-11 08:32:34 51°10.967 2°44.513 8.826606 3.437254 33.654385 29.287537
2003-03-11 08:32:39 51°10.958 2°44.486 8.476986 3.436938 33.642706 28.57964
2003-03-11 08:32:44 51°10.949 2°44.46 8.520235 3.437149 33.647469 29.253828
2003-03-11 08:32:49 51°10.94 2°44.433 8.908934 3.439045 33.664786 29.557212
2003-03-11 08:32:54 51°10.931 2°44.406 8.243444 3.43757 33.647105 29.624631
2003-03-11 08:32:59 51°10.922 2°44.379 8.243444 3.43757 33.647105 29.624631
2003-03-11 08:33:04 51°10.913 2°44.352 9.14541 3.437676 33.645778 29.961725
2003-03-11 08:33:09 51°10.904 2°44.326 9.033636 3.437781 33.646099 30.332529
2003-03-11 08:33:14 51°10.895 2°44.299 8.327338 3.437254 33.637903 30.096563
2003-03-11 08:33:19 51°10.886 2°44.272 8.800238 3.437781 33.64198 30.197691
2003-03-11 08:33:24 51°10.878 2°44.245 8.289257 3.437359 33.634929 30.534785
2003-03-11 08:33:28 51°10.87 2°44.224 8.289257 3.437359 33.634929 30.534785
2003-03-11 08:33:34 51°10.859 2°44.192 8.131786 3.437991 33.638504 30.568494
2003-03-11 08:33:39 51°10.85 2°44.165 8.728629 3.438202 33.641617 30.80446
2003-03-11 08:33:44 51°10.841 2°44.139 8.490286 3.437991 33.638504 31.040426
2003-03-11 08:33:49 51°10.832 2°44.112 8.17763 3.438307 33.640291 30.80446
2003-03-11 08:33:54 51°10.823 2°44.085 8.141681 3.43757 33.629808 30.669623
2003-03-11 08:33:59 51°10.815 2°44.058 8.141681 3.43757 33.629808 30.669623
2003-03-11 08:34:04 51°10.806 2°44.032 8.888899 3.438202 33.636676 30.298819
2003-03-11 08:34:08 51°10.799 2°44.01 8.772426 3.438729 33.640752 30.26511
2003-03-11 08:34:14 51°10.788 2°43.979 8.817101 3.438307 33.63535 29.995435
2003-03-11 08:34:19 51°10.78 2°43.952 8.73939 3.438729 33.639105 29.826888
2003-03-11 08:34:23 51°10.773 2°43.93 8.548683 3.43894 33.643041 29.590922
2003-03-11 08:34:29 51°10.762 2°43.898 8.548683 3.43894 33.643041 29.590922
2003-03-11 08:34:34 51°10.754 2°43.871 8.354573 3.438939 33.638101 28.680768
2003-03-11 08:34:39 51°10.745 2°43.845 8.279096 3.438518 33.6327 29.253828
2003-03-11 08:34:44 51°10.736 2°43.818 8.400643 3.439677 33.643641 28.883024
2003-03-11 08:34:49 51°10.728 2°43.791 8.328156 3.439045 33.63266 29.321247
2003-03-11 08:34:54 51°10.719 2°43.764 8.329889 3.438939 33.628225 29.051571
2003-03-11 08:34:59 51°10.71 2°43.737 8.329889 3.438939 33.628225 29.051571
2003-03-11 08:35:04 51°10.702 2°43.71 8.764444 3.439887 33.636053 29.186409
2003-03-11 08:35:09 51°10.694 2°43.683 8.379872 3.439045 33.620321 29.422375
2003-03-11 08:35:14 51°10.688 2°43.655 8.695953 3.439571 33.62604 29.928016
2003-03-11 08:35:19 51°10.682 2°43.626 9.012067 3.439782 33.62586 29.995435
2003-03-11 08:35:24 51°10.677 2°43.596 8.428568 3.440203 33.626323 30.163982
2003-03-11 08:35:29 51°10.674 2°43.567 8.428568 3.440203 33.626323 30.163982
2003-03-11 08:35:34 51°10.671 2°43.537 8.389105 3.440309 33.622534 30.163982
2003-03-11 08:35:39 51°10.669 2°43.507 8.356593 3.44073 33.622997 30.096563
2003-03-11 08:35:44 51°10.669 2°43.477 8.398047 3.440624 33.616923 30.534785
2003-03-11 08:35:49 51°10.669 2°43.446 8.752827 3.441046 33.616566 30.80446
2003-03-11 08:35:54 51°10.67 2°43.416 8.321033 3.441362 33.616709 30.26511
2003-03-11 08:35:59 51°10.671 2°43.386 8.321033 3.441362 33.616709 30.26511
2003-03-11 08:36:04 51°10.673 2°43.356 8.831907 3.44231 33.622065 31.310101
2003-03-11 08:36:09 51°10.675 2°43.326 8.639557 3.441888 33.617494 31.984289
2003-03-11 08:36:14 51°10.677 2°43.296 8.482796 3.441888 33.614209 31.242683
2003-03-11 08:36:19 51°10.679 2°43.266 9.07128 3.44231 33.615495 31.916871
2003-03-11 08:36:24 51°10.68 2°43.236 8.485149 3.442942 33.619066 32.422512
2003-03-11 08:36:28 51°10.682 2°43.211 8.485149 3.442942 33.619066 32.422512
2003-03-11 08:36:34 51°10.685 2°43.175 8.092189 3.44252 33.615317 32.557349
2003-03-11 08:36:38 51°10.687 2°43.151 8.131062 3.442626 33.614817 32.388802
2003-03-11 08:36:44 51°10.691 2°43.115 8.362414 3.44231 33.61139 32.557349
2003-03-11 08:36:48 51°10.693 2°43.09 8.357459 3.442204 33.607786 32.152836
2003-03-11 08:36:54 51°10.697 2°43.054 8.468919 3.442942 33.614961 32.961862
2003-03-11 08:36:59 51°10.699 2°43.023 8.468919 3.442942 33.614961 32.961862
2003-03-11 08:37:04 51°10.702 2°42.993 8.583974 3.443258 33.616746 32.658477
2003-03-11 08:37:08 51°10.705 2°42.969 8.658234 3.442942 33.61414 32.456221
2003-03-11 08:37:14 51°10.708 2°42.932 8.620827 3.443258 33.618388 32.422512
2003-03-11 08:37:19 51°10.711 2°42.902 8.300043 3.443258 33.619209 32.48993
2003-03-11 08:37:23 51°10.713 2°42.878 8.886561 3.443363 33.625278 31.984289
2003-03-11 08:37:29 51°10.717 2°42.841 8.886561 3.443363 33.625278 31.984289
2003-03-11 08:37:34 51°10.72 2°42.81 8.571941 3.444838 33.645383 31.748324
2003-03-11 08:37:39 51°10.723 2°42.78 8.68509 3.443047 33.6276 31.680905
2003-03-11 08:37:44 51°10.726 2°42.75 8.683893 3.443258 33.638103 31.276392
2003-03-11 08:37:49 51°10.729 2°42.719 8.206857 3.443258 33.638103 31.546067
2003-03-11 08:37:54 51°10.732 2°42.689 8.60051 3.443047 33.638283 31.37752
2003-03-11 08:37:59 51°10.735 2°42.658 8.60051 3.443047 33.638283 31.37752
2003-03-11 08:38:04 51°10.738 2°42.628 8.432364 3.443153 33.641893 31.040426
2003-03-11 08:38:08 51°10.74 2°42.603 8.269799 3.443047 33.644039 31.175264
2003-03-11 08:38:14 51°10.744 2°42.567 8.73389 3.443047 33.644861 31.141554
2003-03-11 08:38:19 51°10.747 2°42.536 8.494702 3.443153 33.648472 31.175264
2003-03-11 08:38:24 51°10.75 2°42.506 8.539378 3.442205 33.643116 30.669623
2003-03-11 08:38:28 51°10.752 2°42.481 8.539378 3.442205 33.643116 30.669623
2003-03-11 08:38:34 51°10.754 2°42.443 8.616228 3.442626 33.650158 31.276392
2003-03-11 08:38:39 51°10.756 2°42.412 8.336433 3.442626 33.654273 30.635913
2003-03-11 08:38:44 51°10.758 2°42.381 8.409584 3.442416 33.657747 30.534785
2003-03-11 08:38:48 51°10.759 2°42.356 8.485917 3.441994 33.657287 30.770751
2003-03-11 08:38:54 51°10.762 2°42.319 8.400018 3.441889 33.661907 30.467366
2003-03-11 08:38:59 51°10.764 2°42.288 8.400018 3.441889 33.661907 30.467366
2003-03-11 08:39:04 51°10.767 2°42.258 8.275339 3.441678 33.660443 30.2314
2003-03-11 08:39:08 51°10.769 2°42.233 8.428279 3.441889 33.665202 30.467366
2003-03-11 08:39:14 51°10.773 2°42.196 8.382565 3.441994 33.667994 30.399947
2003-03-11 08:39:19 51°10.777 2°42.166 8.700643 3.441994 33.67129 30.366238
2003-03-11 08:39:24 51°10.781 2°42.136 8.26344 3.4421 33.67738 30.501076
2003-03-11 08:39:28 51°10.783 2°42.112 8.26344 3.4421 33.67738 30.501076
2003-03-11 08:39:34 51°10.787 2°42.076 8.814235 3.442943 33.690661 30.399947
2003-03-11 08:39:39 51°10.79 2°42.046 8.531078 3.442416 33.69071 30.366238
2003-03-11 08:39:44 51°10.793 2°42.016 8.018676 3.4421 33.688925 30.298819
2003-03-11 08:39:49 51°10.797 2°41.986 8.645352 3.442311 33.698642 29.624631
2003-03-11 08:39:54 51°10.8 2°41.956 8.4092 3.442416 33.698962 29.928016
2003-03-11 08:39:59 51°10.803 2°41.926 8.4092 3.442416 33.698962 29.928016
2003-03-11 08:40:04 51°10.806 2°41.896 8.41069 3.442627 33.70538 30.399947
2003-03-11 08:40:09 51°10.809 2°41.866 8.763966 3.442311 33.704421 29.725759
2003-03-11 08:40:14 51°10.813 2°41.836 8.681069 3.442311 33.709375 29.894306
2003-03-11 08:40:18 51°10.815 2°41.812 8.207146 3.443048 33.720701 30.130272
2003-03-11 08:40:24 51°10.819 2°41.777 8.242143 3.442732 33.718915 29.961725
2003-03-11 08:40:28 51°10.822 2°41.753 8.242143 3.442732 33.718915 29.961725
2003-03-11 08:40:34 51°10.826 2°41.717 8.008762 3.442838 33.721714 30.062853
2003-03-11 08:40:39 51°10.829 2°41.687 8.049764 3.442943 33.723687 29.928016
2003-03-11 08:40:44 51°10.832 2°41.657 8.364145 3.442838 33.721714 30.332529
2003-03-11 08:40:48 51°10.835 2°41.633 8.679681 3.44347 33.729417 30.332529
2003-03-11 08:40:54 51°10.839 2°41.597 8.718106 3.44347 33.730244 29.793178
2003-03-11 08:40:59 51°10.842 2°41.567 8.718106 3.44347 33.730244 29.793178
2003-03-11 08:41:04 51°10.845 2°41.537 8.246818 3.443364 33.730751 29.961725
2003-03-11 08:41:08 51°10.847 2°41.512 9.07423 3.44368 33.737497 29.928016
2003-03-11 08:41:14 51°10.851 2°41.476 9.000161 3.443891 33.738136 30.029144
2003-03-11 08:41:19 51°10.854 2°41.446 8.650093 3.443364 33.734058 29.759469
2003-03-11 08:41:24 51°10.857 2°41.416 8.809793 3.444312 33.743548 29.422375
2003-03-11 08:41:28 51°10.859 2°41.392 8.809793 3.444312 33.743548 29.422375
2003-03-11 08:41:34 51°10.863 2°41.356 8.180573 3.444312 33.744375 29.557212
2003-03-11 08:41:39 51°10.865 2°41.326 8.853153 3.44505 33.749917 29.658341
2003-03-11 08:41:44 51°10.868 2°41.296 8.696384 3.444734 33.744824 29.928016
2003-03-11 08:41:48 51°10.869 2°41.272 8.069675 3.44526 33.748074 30.062853
2003-03-11 08:41:52 51°10.869 2°41.248 8.461235 3.445366 33.747566 30.298819
2003-03-11 08:41:59 51°10.866 2°41.207 8.461235 3.445366 33.747566 30.298819
2003-03-11 08:42:04 51°10.863 2°41.177 8.111797 3.444944 33.741328 30.2314
2003-03-11 08:42:08 51°10.86 2°41.154 8.433084 3.446103 33.751453 30.332529
2003-03-11 08:42:14 51°10.853 2°41.12 8.59035 3.446314 33.752091 30.770751
2003-03-11 08:42:19 51°10.847 2°41.092 8.124351 3.446419 33.753237 31.512358
2003-03-11 08:42:24 51°10.84 2°41.064 7.969427 3.446946 33.75814 31.647195
2003-03-11 08:42:28 51°10.834 2°41.042 7.969427 3.446946 33.75814 31.647195
2003-03-11 08:42:34 51°10.824 2°41.009 8.647795 3.447051 33.756805 31.748324
2003-03-11 08:42:39 51°10.816 2°40.982 8.213656 3.446946 33.744086 32.051708
2003-03-11 08:42:44 51°10.807 2°40.955 8.490382 3.447472 33.7556 31.883161
2003-03-11 08:42:48 51°10.8 2°40.934 8.923623 3.447894 33.757702 32.759606
2003-03-11 08:42:54 51°10.789 2°40.902 8.534197 3.448315 33.756497 33.06299
2003-03-11 08:42:59 51°10.778 2°40.878 8.534197 3.448315 33.756497 33.06299
2003-03-11 08:43:04 51°10.767 2°40.854 8.181152 3.448631 33.754974 32.624768
2003-03-11 08:43:08 51°10.758 2°40.836 8.655983 3.448947 33.755105 33.400084
2003-03-11 08:43:14 51°10.743 2°40.809 8.660676 3.449263 33.756887 33.433794
2003-03-11 08:43:19 51°10.73 2°40.787 8.227347 3.449579 33.75867 33.568631
2003-03-11 08:43:23 51°10.719 2°40.772 8.821066 3.45 33.760772 33.703469
2003-03-11 08:43:29 51°10.701 2°40.751 8.821066 3.45 33.760772 33.703469
2003-03-11 08:43:34 51°10.687 2°40.734 8.622073 3.450633 33.765989 33.63605
2003-03-11 08:43:39 51°10.671 2°40.718 8.193644 3.450738 33.765481 33.804597
2003-03-11 08:43:44 51°10.655 2°40.702 8.789105 3.450632 33.761858 33.737178
2003-03-11 08:43:49 51°10.639 2°40.687 7.962652 3.451475 33.769364 32.557349
2003-03-11 08:43:54 51°10.623 2°40.673 8.620971 3.45137 33.766567 32.995571
2003-03-11 08:43:59 51°10.606 2°40.658 8.620971 3.45137 33.766567 32.995571
2003-03-11 08:44:04 51°10.589 2°40.643 8.479867 3.452845 33.782595 32.692187
2003-03-11 08:44:09 51°10.572 2°40.629 8.59845 3.45295 33.782087 32.017999
2003-03-11 08:44:14 51°10.556 2°40.614 8.287235 3.452318 33.77026 31.916871
2003-03-11 08:44:19 51°10.539 2°40.6 8.479963 3.452845 33.772678 31.95058
2003-03-11 08:44:24 51°10.523 2°40.586 8.717053 3.453266 33.767345 31.37752
2003-03-11 08:44:28 51°10.51 2°40.575 8.717053 3.453266 33.767345 31.37752
2003-03-11 08:44:34 51°10.489 2°40.557 8.801433 3.453582 33.777386 31.37752
2003-03-11 08:44:39 51°10.473 2°40.542 8.634384 3.453582 33.773255 31.41123
2003-03-11 08:44:44 51°10.456 2°40.528 8.321033 3.454109 33.774847 30.602204
2003-03-11 08:44:48 51°10.443 2°40.516 8.315545 3.453898 33.773385 31.579777
2003-03-11 08:44:54 51°10.423 2°40.5 8.93869 3.453687 33.77027 31.782033
2003-03-11 08:44:59 51°10.406 2°40.485 8.93869 3.453687 33.77027 31.782033
2003-03-11 08:45:04 51°10.39 2°40.47 8.271003 3.454214 33.777643 31.647195
2003-03-11 08:45:08 51°10.376 2°40.458 8.50771 3.453687 33.77027 32.557349
2003-03-11 08:45:14 51°10.356 2°40.441 8.895053 3.453477 33.768808 32.624768
2003-03-11 08:45:19 51°10.34 2°40.426 8.229323 3.452739 33.758322 33.298956
2003-03-11 08:45:24 51°10.323 2°40.411 8.663357 3.452739 33.765752 33.63605
2003-03-11 08:45:29 51°10.307 2°40.396 8.663357 3.452739 33.765752 33.63605
2003-03-11 08:45:34 51°10.29 2°40.381 8.268402 3.452318 33.763652 33.298956
2003-03-11 08:45:39 51°10.274 2°40.366 8.854872 3.452318 33.764478 33.501212
2003-03-11 08:45:44 51°10.257 2°40.35 8.34726 3.45158 33.757292 32.725896
2003-03-11 08:45:48 51°10.244 2°40.338 8.667522 3.450948 33.752903 33.0967
2003-03-11 08:45:54 51°10.224 2°40.32 9.02859 3.450527 33.74915 32.995571
2003-03-11 08:45:59 51°10.208 2°40.306 9.02859 3.450527 33.74915 32.995571
2003-03-11 08:46:04 51°10.191 2°40.29 8.449419 3.450632 33.742866 32.624768
2003-03-11 08:46:09 51°10.175 2°40.275 8.298021 3.450211 33.744891 32.48993
2003-03-11 08:46:14 51°10.159 2°40.26 8.658952 3.450843 33.753409 32.456221
2003-03-11 08:46:19 51°10.142 2°40.245 8.516732 3.450527 33.751627 32.321383
2003-03-11 08:46:24 51°10.126 2°40.23 8.609807 3.452002 33.76187 32.186546
2003-03-11 08:46:28 51°10.113 2°40.218 8.609807 3.452002 33.76187 32.186546
2003-03-11 08:46:34 51°10.093 2°40.2 8.507614 3.450843 33.743504 32.658477
2003-03-11 08:46:39 51°10.077 2°40.185 8.990111 3.451264 33.74148 33.029281
2003-03-11 08:46:44 51°10.06 2°40.17 8.578605 3.451475 33.738818 33.602341
2003-03-11 08:46:49 51°10.044 2°40.154 8.708968 3.452423 33.74004 33.130409
2003-03-11 08:46:54 51°10.028 2°40.139 8.407421 3.453687 33.744692 32.591059
2003-03-11 08:46:59 51°10.011 2°40.124 8.407421 3.453687 33.744692 32.591059
2003-03-11 08:47:04 51°9.995 2°40.108 8.691551 3.454108 33.733606 31.815742
2003-03-11 08:47:08 51°9.982 2°40.096 8.744889 3.456004 33.743466 31.613486
2003-03-11 08:47:14 51°9.962 2°40.077 8.4413 3.456847 33.740253 31.444939
2003-03-11 08:47:19 51°9.946 2°40.061 9.043204 3.458005 33.738821 30.939298
2003-03-11 08:47:24 51°9.93 2°40.046 8.855922 3.45948 33.738349 30.770751
2003-03-11 08:47:28 51°9.917 2°40.033 8.855922 3.45948 33.738349 30.770751
2003-03-11 08:47:34 51°9.897 2°40.014 8.784709 3.460533 33.73907 31.37752
2003-03-11 08:47:39 51°9.881 2°39.999 8.635869 3.461692 33.739289 32.186546
2003-03-11 08:47:44 51°9.865 2°39.983 9.148119 3.46264 33.735584 32.48993
2003-03-11 08:47:48 51°9.852 2°39.971 8.529303 3.463167 33.735536 33.130409
2003-03-11 08:47:54 51°9.834 2°39.95 9.002781 3.464852 33.738993 33.973144
2003-03-11 08:47:59 51°9.819 2°39.93 9.002781 3.464852 33.738993 33.973144
2003-03-11 08:48:04 51°9.805 2°39.909 8.578893 3.466221 33.744776 33.534922
2003-03-11 08:48:08 51°9.795 2°39.891 9.560284 3.466853 33.743405 33.872016
2003-03-11 08:48:14 51°9.781 2°39.863 9.014782 3.467591 33.743173 34.445076
2003-03-11 08:48:19 51°9.771 2°39.837 8.935877 3.468328 33.744582 34.20911
2003-03-11 08:48:24 51°9.762 2°39.81 8.500846 3.469171 33.746309 34.411366
2003-03-11 08:48:28 51°9.756 2°39.788 8.500846 3.469171 33.746309 34.411366
2003-03-11 08:48:34 51°9.749 2°39.754 8.34394 3.469697 33.744621 34.074272
2003-03-11 08:48:39 51°9.745 2°39.724 8.539378 3.470224 33.743754 34.107982
2003-03-11 08:48:44 51°9.742 2°39.695 8.418908 3.470856 33.746484 34.107982
2003-03-11 08:48:48 51°9.741 2°39.671 8.574146 3.461375 33.640822 34.579913
2003-03-11 08:48:54 51°9.741 2°39.635 8.725999 3.472436 33.758635 34.20911
2003-03-11 08:48:59 51°9.742 2°39.604 8.725999 3.472436 33.758635 34.20911
2003-03-11 08:49:04 51°9.743 2°39.574 9.156054 3.471488 33.751672 33.973144
2003-03-11 08:49:09 51°9.745 2°39.543 9.113515 3.47212 33.75768 34.006853
2003-03-11 08:49:14 51°9.748 2°39.513 8.801481 3.472226 33.760458 33.703469
2003-03-11 08:49:19 51°9.752 2°39.483 8.76779 3.47212 33.76014 33.501212
2003-03-11 08:49:24 51°9.757 2°39.454 8.729395 3.47212 33.76178 32.422512
2003-03-11 08:49:28 51°9.762 2°39.43 8.729395 3.47212 33.76178 32.422512
2003-03-11 08:49:34 51°9.769 2°39.394 8.995541 3.472436 33.767655 31.916871
2003-03-11 08:49:39 51°9.776 2°39.366 8.448554 3.471804 33.762466 31.782033
2003-03-11 08:49:44 51°9.783 2°39.338 8.765734 3.471804 33.765747 31.41123
2003-03-11 08:49:48 51°9.788 2°39.315 9.051961 3.471383 33.761194 31.546067
2003-03-11 08:49:54 51°9.798 2°39.282 8.650093 3.471278 33.760055 31.512358
2003-03-11 08:49:59 51°9.807 2°39.255 8.650093 3.471278 33.760055 31.512358
2003-03-11 08:50:04 51°9.816 2°39.228 8.888326 3.471594 33.76265 31.242683
2003-03-11 08:50:09 51°9.826 2°39.202 8.810318 3.471699 33.762968 30.973007
2003-03-11 08:50:14 51°9.836 2°39.175 9.046535 3.471278 33.760876 31.074136
2003-03-11 08:50:19 51°9.846 2°39.148 8.620731 3.471383 33.763655 31.512358
2003-03-11 08:50:24 51°9.856 2°39.122 9.011448 3.471488 33.763973 31.883161
2003-03-11 08:50:28 51°9.863 2°39.101 9.011448 3.471488 33.763973 31.883161
2003-03-11 08:50:34 51°9.874 2°39.069 9.167029 3.471278 33.758415 32.557349
2003-03-11 08:50:38 51°9.881 2°39.048 8.861889 3.471699 33.760508 32.928153
2003-03-11 08:50:44 51°9.892 2°39.016 9.174013 3.471488 33.758231 33.872016
2003-03-11 08:50:48 51°9.9 2°38.995 8.8606 3.471594 33.75773 34.343947
2003-03-11 08:50:54 51°9.912 2°38.963 8.900492 3.471594 33.75773 35.119264
2003-03-11 08:50:59 51°9.922 2°38.937 8.900492 3.471594 33.75773 35.119264
2003-03-11 08:51:04 51°9.933 2°38.911 8.310346 3.47212 33.76014 35.523777
2003-03-11 08:51:08 51°9.941 2°38.89 8.893288 3.474227 33.782902 36.636187
2003-03-11 08:51:13 51°9.951 2°38.863 8.811465 3.472542 33.761412 37.074409
2003-03-11 08:51:19 51°9.963 2°38.831 9.158478 3.473595 33.771152 37.512631
2003-03-11 08:51:24 51°9.973 2°38.805 8.44106 3.472647 33.76173 38.018272
2003-03-11 08:51:29 51°9.983 2°38.778 8.44106 3.472647 33.76173 38.018272
2003-03-11 08:51:34 51°9.994 2°38.751 8.906263 3.472752 33.763688 38.321657
2003-03-11 08:51:39 51°10.004 2°38.724 9.208964 3.472752 33.763688 38.1194
2003-03-11 08:51:44 51°10.013 2°38.697 8.77582 3.472331 33.761596 38.287947
2003-03-11 08:51:49 51°10.022 2°38.669 8.837159 3.47212 33.7626 37.310375
2003-03-11 08:51:54 51°10.03 2°38.642 8.400643 3.471804 33.764927 36.838443
2003-03-11 08:51:59 51°10.04 2°38.616 8.400643 3.471804 33.764927 36.838443
2003-03-11 08:52:04 51°10.05 2°38.589 8.506894 3.471699 33.768711 36.096836
2003-03-11 08:52:08 51°10.058 2°38.568 8.732264 3.470962 33.765664 35.692324
2003-03-11 08:52:14 51°10.07 2°38.535 9.164036 3.470646 33.769634 35.422648
2003-03-11 08:52:19 51°10.08 2°38.509 8.594088 3.470119 33.773792 34.276529
2003-03-11 08:52:24 51°10.093 2°38.485 9.042632 3.469066 33.769791 33.400084
2003-03-11 08:52:28 51°10.103 2°38.466 9.042632 3.469066 33.769791 33.400084
2003-03-11 08:52:34 51°10.117 2°38.436 8.686765 3.468961 33.776867 32.894443
2003-03-11 08:52:39 51°10.127 2°38.41 8.602092 3.468013 33.776471 32.658477
2003-03-11 08:52:44 51°10.137 2°38.384 8.092575 3.467275 33.780001 32.355093
2003-03-11 08:52:48 51°10.148 2°38.362 8.525657 3.466327 33.777139 32.186546
2003-03-11 08:52:54 51°10.16 2°38.331 8.44596 3.465274 33.782188 32.422512
2003-03-11 08:52:59 51°10.169 2°38.305 8.44596 3.465274 33.782188 32.422512
2003-03-11 08:53:04 51°10.179 2°38.279 8.524457 3.464431 33.779644 31.883161
2003-03-11 08:53:08 51°10.187 2°38.258 8.210473 3.463799 33.781853 32.321383
2003-03-11 08:53:14 51°10.2 2°38.226 8.482796 3.463905 33.790407 32.591059
2003-03-11 08:53:19 51°10.21 2°38.199 8.910985 3.463062 33.785392 32.119127
2003-03-11 08:53:24 51°10.218 2°38.171 8.63903 3.46243 33.781013 31.916871
2003-03-11 08:53:28 51°10.223 2°38.148 8.63903 3.46243 33.781013 31.916871
2003-03-11 08:53:34 51°10.229 2°38.112 8.238384 3.462535 33.783803 31.815742
2003-03-11 08:53:39 51°10.233 2°38.082 8.55228 3.462219 33.780377 31.680905
2003-03-11 08:53:44 51°10.236 2°38.053 8.828325 3.462641 33.785769 31.883161
2003-03-11 08:53:48 51°10.236 2°38.029 8.268595 3.462641 33.789065 31.512358
2003-03-11 08:53:54 51°10.235 2°37.993 8.773956 3.462641 33.790713 31.748324
2003-03-11 08:53:59 51°10.234 2°37.964 8.773956 3.462641 33.790713 31.748324
2003-03-11 08:54:04 51°10.23 2°37.935 8.536787 3.46243 33.791726 31.782033
2003-03-11 08:54:09 51°10.226 2°37.906 8.802054 3.462535 33.793693 31.714614
2003-03-11 08:54:14 51°10.219 2°37.878 8.829232 3.462325 33.794706 31.41123
2003-03-11 08:54:19 51°10.212 2°37.85 8.513661 3.461903 33.791786 31.242683
2003-03-11 08:54:24 51°10.205 2°37.822 8.350628 3.462114 33.799019 30.399947
2003-03-11 08:54:29 51°10.197 2°37.795 8.350628 3.462114 33.799019 30.399947
2003-03-11 08:54:34 51°10.188 2°37.768 8.824886 3.461482 33.795462 30.366238
2003-03-11 08:54:39 51°10.178 2°37.743 8.462004 3.46222 33.809237 29.489794
2003-03-11 08:54:44 51°10.167 2°37.719 8.571605 3.461798 33.810443 29.489794
2003-03-11 08:54:48 51°10.158 2°37.7 8.531222 3.461377 33.811649 28.916734
2003-03-11 08:54:54 51°10.143 2°37.672 8.532613 3.460534 33.808283 28.815606
2003-03-11 08:54:59 51°10.131 2°37.649 8.532613 3.460534 33.808283 28.815606
2003-03-11 08:55:04 51°10.118 2°37.628 8.620827 3.46085 33.815843 28.781896
2003-03-11 08:55:08 51°10.107 2°37.61 8.688105 3.460113 33.810316 28.444802
2003-03-11 08:55:14 51°10.091 2°37.584 8.732408 3.459586 33.811207 28.073999
2003-03-11 08:55:19 51°10.078 2°37.563 8.187519 3.460008 33.819914 27.703195
2003-03-11 08:55:24 51°10.064 2°37.542 9.002066 3.459692 33.819788 27.838033
2003-03-11 08:55:28 51°10.053 2°37.525 9.002066 3.459692 33.819788 27.838033
2003-03-11 08:55:34 51°10.036 2°37.5 8.335327 3.459165 33.817374 27.703195
2003-03-11 08:55:39 51°10.022 2°37.479 8.296143 3.45927 33.818518 27.43352
2003-03-11 08:55:44 51°10.008 2°37.458 8.435054 3.459376 33.819662 27.804324
2003-03-11 08:55:48 51°9.997 2°37.441 8.45014 3.458744 33.808666 27.534648
2003-03-11 08:55:54 51°9.981 2°37.416 8.607315 3.458849 33.807331 27.231264
2003-03-11 08:55:59 51°9.967 2°37.395 8.607315 3.458849 33.807331 27.231264
2003-03-11 08:56:04 51°9.953 2°37.374 9.116082 3.459692 33.818961 27.46723
2003-03-11 08:56:09 51°9.939 2°37.353 8.842268 3.461377 33.83892 27.264973
2003-03-11 08:56:14 51°9.926 2°37.332 8.467575 3.458849 33.808983 27.736905
2003-03-11 08:56:19 51°9.912 2°37.311 8.472281 3.459376 33.813876 28.040289
2003-03-11 08:56:24 51°9.898 2°37.29 8.555062 3.459376 33.818009 27.972871
2003-03-11 08:56:28 51°9.887 2°37.273 8.555062 3.459376 33.818009 27.972871
2003-03-11 08:56:34 51°9.871 2°37.248 8.487885 3.459481 33.821633 28.141418
2003-03-11 08:56:39 51°9.857 2°37.227 8.251829 3.459376 33.818009 28.208836
2003-03-11 08:56:44 51°9.843 2°37.206 8.305677 3.459376 33.816356 28.916734
2003-03-11 08:56:48 51°9.833 2°37.188 8.855349 3.459586 33.814512 29.624631
2003-03-11 08:56:54 51°9.816 2°37.163 8.510205 3.459692 33.810698 29.961725
2003-03-11 08:56:59 51°9.802 2°37.142 8.510205 3.459692 33.810698 29.961725
2003-03-11 08:57:04 51°9.789 2°37.121 8.824982 3.462009 33.829248 30.467366
2003-03-11 08:57:08 51°9.778 2°37.104 8.656989 3.460113 33.801233 30.871879
2003-03-11 08:57:14 51°9.761 2°37.078 9.138757 3.460323 33.797742 31.37752
2003-03-11 08:57:19 51°9.747 2°37.057 8.670586 3.46085 33.796855 31.916871
2003-03-11 08:57:24 51°9.733 2°37.036 8.246336 3.461271 33.796477 32.085418
2003-03-11 08:57:28 51°9.722 2°37.019 8.246336 3.461271 33.796477 32.085418
2003-03-11 08:57:34 51°9.706 2°36.993 8.404777 3.461903 33.799208 32.591059
2003-03-11 08:57:39 51°9.692 2°36.973 8.449035 3.460955 33.785627 32.624768
2003-03-11 08:57:44 51°9.679 2°36.951 8.446729 3.462641 33.799782 32.995571
2003-03-11 08:57:49 51°9.665 2°36.93 8.489806 3.461798 33.784049 32.692187
2003-03-11 08:57:54 51°9.651 2°36.908 8.611197 3.461903 33.785191 33.265247
2003-03-11 08:57:59 51°9.638 2°36.887 8.611197 3.461903 33.785191 33.265247
2003-03-11 08:58:04 51°9.624 2°36.866 8.53506 3.462746 33.793504 32.894443
2003-03-11 08:58:08 51°9.613 2°36.849 8.455568 3.46243 33.788429 33.06299
2003-03-11 08:58:14 51°9.597 2°36.823 8.932969 3.462746 33.790207 33.770888
2003-03-11 08:58:19 51°9.583 2°36.801 8.068854 3.462851 33.788876 33.231537
2003-03-11 08:58:24 51°9.569 2°36.78 8.468055 3.462746 33.784439 33.400084
2003-03-11 08:58:28 51°9.559 2°36.763 8.468055 3.462746 33.784439 33.400084
2003-03-11 08:58:34 51°9.543 2°36.737 8.470792 3.463273 33.789324 33.534922
2003-03-11 08:58:38 51°9.532 2°36.719 8.825412 3.462851 33.782285 34.006853
2003-03-11 08:58:44 51°9.515 2°36.694 8.6363 3.463062 33.782097 34.613623
2003-03-11 08:58:48 51°9.504 2°36.676 8.758277 3.463062 33.778803 34.1754
2003-03-11 08:58:54 51°9.488 2°36.65 9.073992 3.463483 33.777605 34.546204
2003-03-11 08:58:59 51°9.474 2°36.629 9.073992 3.463483 33.777605 34.546204
2003-03-11 08:59:04 51°9.461 2°36.607 8.253708 3.463588 33.77463 34.74846
2003-03-11 08:59:09 51°9.447 2°36.586 9.00521 3.464431 33.784584 35.085554
2003-03-11 08:59:14 51°9.433 2°36.564 8.731595 3.464642 33.783573 34.815879
2003-03-11 08:59:18 51°9.422 2°36.547 8.739151 3.464326 33.773565 34.849589
2003-03-11 08:59:24 51°9.405 2°36.521 8.226093 3.464115 33.769637 35.490067
2003-03-11 08:59:28 51°9.394 2°36.504 8.226093 3.464115 33.769637 35.490067
2003-03-11 08:59:34 51°9.378 2°36.478 8.740968 3.464326 33.767806 36.130546
2003-03-11 08:59:39 51°9.364 2°36.456 8.747424 3.466117 33.783085 36.366512
2003-03-11 08:59:44 51°9.351 2°36.435 8.78858 3.465379 33.770987 36.602477
2003-03-11 08:59:49 51°9.337 2°36.413 8.476986 3.465484 33.764727 37.209247
2003-03-11 08:59:54 51°9.323 2°36.391 8.635869 3.466222 33.774354 36.973281
2003-03-11 08:59:59 51°9.309 2°36.37 8.635869 3.466222 33.774354 36.973281
2003-03-11 09:00:04 51°9.295 2°36.348 8.797419 3.466011 33.768784 37.175537
2003-03-11 09:00:08 51°9.284 2°36.33 8.564077 3.467381 33.781141 38.018272
2003-03-11 09:00:14 51°9.267 2°36.305 8.686717 3.466327 33.766451 38.15311
2003-03-11 09:00:19 51°9.253 2°36.282 9.080747 3.46738 33.774563 37.883435
2003-03-11 09:00:24 51°9.239 2°36.259 8.65718 3.466959 33.768359 38.321657
2003-03-11 09:00:28 51°9.228 2°36.241 8.65718 3.466959 33.768359 38.321657
2003-03-11 09:00:34 51°9.211 2°36.215 8.659095 3.467275 33.768492 38.051982
2003-03-11 09:00:39 51°9.198 2°36.193 8.186313 3.46738 33.76881 38.827298
2003-03-11 09:00:43 51°9.187 2°36.175 8.705141 3.467275 33.761919 38.1194
2003-03-11 09:00:48 51°9.173 2°36.153 8.46623 3.468539 33.772308 38.995845
2003-03-11 09:00:54 51°9.157 2°36.126 8.548731 3.468118 33.765286 38.287947
2003-03-11 09:00:58 51°9.146 2°36.108 8.548731 3.468118 33.765286 38.287947
2003-03-11 09:01:04 51°9.131 2°36.081 8.780551 3.470014 33.779224 38.658751
2003-03-11 09:01:08 51°9.122 2°36.061 8.822689 3.468644 33.761949 38.928426
2003-03-11 09:01:14 51°9.11 2°36.03 9.29152 3.46875 33.759805 38.72617
2003-03-11 09:01:18 51°9.103 2°36.008 9.054388 3.469171 33.762719 38.962136
2003-03-11 09:01:24 51°9.095 2°35.975 9.017782 3.469171 33.761898 39.096973
2003-03-11 09:01:28 51°9.09 2°35.952 9.017782 3.469171 33.761898 39.096973
2003-03-11 09:01:34 51°9.085 2°35.917 8.972768 3.469382 33.762534 39.568905
2003-03-11 09:01:39 51°9.083 2°35.887 9.005067 3.469803 33.764628 40.310512
2003-03-11 09:01:44 51°9.083 2°35.857 8.374101 3.469803 33.762986 41.321794
2003-03-11 09:01:48 51°9.084 2°35.833 8.84351 3.469803 33.762165 41.321794
2003-03-11 09:01:54 51°9.087 2°35.797 8.607747 3.469698 33.760206 41.827435
2003-03-11 09:01:59 51°9.092 2°35.768 8.607747 3.469698 33.760206 41.827435
2003-03-11 09:02:04 51°9.099 2°35.739 8.996446 3.469698 33.760206 42.231947
2003-03-11 09:02:08 51°9.106 2°35.718 9.039729 3.469276 33.758933 42.333076
2003-03-11 09:02:13 51°9.115 2°35.691 8.37035 3.469276 33.764679 42.602751
2003-03-11 09:02:19 51°9.129 2°35.662 8.721167 3.469066 33.766506 42.164529
2003-03-11 09:02:24 51°9.142 2°35.639 8.722124 3.468644 33.764413 42.535332
2003-03-11 09:02:28 51°9.153 2°35.623 8.722124 3.468644 33.764413 42.535332
2003-03-11 09:02:34 51°9.171 2°35.601 8.882457 3.468118 33.757895 42.906136
2003-03-11 09:02:39 51°9.187 2°35.585 8.445576 3.467696 33.756622 42.973554
2003-03-11 09:02:44 51°9.204 2°35.572 8.923719 3.46738 33.752383 43.378067
2003-03-11 09:02:48 51°9.218 2°35.563 8.489517 3.467591 33.754662 43.24323
2003-03-11 09:02:54 51°9.239 2°35.552 8.683941 3.46875 33.77048 43.411777
2003-03-11 09:02:59 51°9.258 2°35.546 8.683941 3.46875 33.77048 43.411777
2003-03-11 09:03:04 51°9.276 2°35.541 9.001018 3.467696 33.759907 44.085965
2003-03-11 09:03:08 51°9.291 2°35.536 8.602188 3.467591 33.757125 44.524187
2003-03-11 09:03:14 51°9.314 2°35.529 8.326279 3.467486 33.755986 44.018546